Time,TemperatureF,DewpointF,PressureIn,WindDirection,WindDirectionDegrees,WindSpeedMPH,WindSpeedGustMPH,Humidity,HourlyPrecipIn,Conditions,Clouds,dailyrainin,SoftwareType,DateUTC
2013-02-12 00:03:00,11.6,8.5,30.02,WSW,252,1.0,1.0,87,0.00,,,0.00,Wunderground v.1.13,2013-02-12 06:03:00,
2013-02-12 00:06:00,11.6,8.5,30.02,WSW,252,1.0,2.0,87,0.00,,,0.00,Wunderground v.1.13,2013-02-12 06:06:00,
2013-02-12 00:08:00,11.5,8.4,30.02,WSW,252,1.0,2.0,87,0.00,,,0.00,Wunderground v.1.13,2013-02-12 06:08:00,
2013-02-12 00:10:00,11.5,8.4,30.02,WSW,252,1.0,1.0,87,0.00,,,0.00,Wunderground v.1.13,2013-02-12 06:10:00,
2013-02-12 00:13:00,11.5,8.4,30.02,WSW,252,1.0,1.0,87,0.00,,,0.00,Wunderground v.1.13,2013-02-12 06:13:00,
2013-02-12 00:14:00,11.5,8.4,30.02,WSW,252,1.0,1.0,87,0.00,,,0.00,Wunderground v.1.13,2013-02-12 06:14:00,
2013-02-12 00:19:00,11.6,8.5,30.02,WSW,252,1.0,1.0,87,0.00,,,0.00,Wunderground v.1.13,2013-02-12 06:19:00,
2013-02-12 00:20:00,11.6,8.5,30.02,WSW,252,0.0,0.0,87,0.00,,,0.00,Wunderground v.1.13,2013-02-12 06:20:00,
2013-02-12 00:21:00,11.5,8.4,30.02,WSW,252,0.0,0.0,87,0.00,,,0.00,Wunderground v.1.13,2013-02-12 06:21:00,
2013-02-12 00:27:00,11.4,8.3,30.02,WSW,252,0.0,0.0,87,0.00,,,0.00,Wunderground v.1.13,2013-02-12 06:27:00,
2013-02-12 00:28:00,11.4,8.3,30.02,WSW,252,0.0,1.0,87,0.00,,,0.00,Wunderground v.1.13,2013-02-12 06:28:00,
2013-02-12 00:30:00,11.3,8.4,30.02,WSW,252,0.0,1.0,88,0.00,,,0.00,Wunderground v.1.13,2013-02-12 06:30:00,
2013-02-12 00:33:00,11.3,8.4,30.01,WSW,252,1.0,1.0,88,0.00,,,0.00,Wunderground v.1.13,2013-02-12 06:33:00,
2013-02-12 00:35:00,11.3,8.4,30.01,WSW,252,1.0,1.0,88,0.00,,,0.00,Wunderground v.1.13,2013-02-12 06:35:00,
2013-02-12 00:40:00,11.1,8.2,30.01,WSW,252,1.0,1.0,88,0.00,,,0.00,Wunderground v.1.13,2013-02-12 06:40:00,
2013-02-12 00:41:00,11.1,8.2,30.01,WSW,250,1.0,1.0,88,0.00,,,0.00,Wunderground v.1.13,2013-02-12 06:41:00,
2013-02-12 00:45:00,10.9,8.0,30.01,WSW,252,1.0,1.0,88,0.00,,,0.00,Wunderground v.1.13,2013-02-12 06:45:00,
2013-02-12 00:47:00,10.8,7.9,30.01,WSW,252,1.0,1.0,88,0.00,,,0.00,Wunderground v.1.13,2013-02-12 06:47:00,
2013-02-12 00:50:00,10.7,7.8,30.02,WSW,250,1.0,2.0,88,0.00,,,0.00,Wunderground v.1.13,2013-02-12 06:50:00,
2013-02-12 00:51:00,10.7,7.8,30.01,WSW,252,1.0,2.0,88,0.00,,,0.00,Wunderground v.1.13,2013-02-12 06:51:00,
2013-02-12 00:56:00,10.7,7.8,30.02,WSW,252,1.0,1.0,88,0.00,,,0.00,Wunderground v.1.13,2013-02-12 06:56:00,
2013-02-12 00:57:00,10.7,7.8,30.01,WSW,252,1.0,1.0,88,0.00,,,0.00,Wunderground v.1.13,2013-02-12 06:57:00,
2013-02-12 00:58:00,10.6,7.7,30.01,WSW,252,1.0,1.0,88,0.00,,,0.00,Wunderground v.1.13,2013-02-12 06:58:00,
2013-02-12 01:03:00,10.4,7.6,30.01,WSW,252,0.0,1.0,88,0.00,,,0.00,Wunderground v.1.13,2013-02-12 07:03:00,
2013-02-12 01:04:00,10.3,7.5,30.01,WSW,252,0.0,1.0,88,0.00,,,0.00,Wunderground v.1.13,2013-02-12 07:04:00,
2013-02-12 01:05:00,10.3,7.5,30.01,WSW,252,0.0,0.0,88,0.00,,,0.00,Wunderground v.1.13,2013-02-12 07:05:00,
2013-02-12 01:09:00,10.3,7.5,30.01,WSW,252,0.0,0.0,88,0.00,,,0.00,Wunderground v.1.13,2013-02-12 07:09:00,
2013-02-12 01:10:00,10.3,7.5,30.01,WSW,252,0.0,0.0,88,0.00,,,0.00,Wunderground v.1.13,2013-02-12 07:10:00,
2013-02-12 01:12:00,10.2,7.6,30.01,WSW,252,0.0,0.0,89,0.00,,,0.00,Wunderground v.1.13,2013-02-12 07:12:00,
2013-02-12 01:15:00,10.0,7.4,30.01,WSW,252,0.0,0.0,89,0.00,,,0.00,Wunderground v.1.13,2013-02-12 07:15:00,
2013-02-12 01:16:00,9.9,7.3,30.01,WSW,252,0.0,0.0,89,0.00,,,0.00,Wunderground v.1.13,2013-02-12 07:16:00,
2013-02-12 01:20:00,9.8,7.0,30.01,WSW,252,0.0,1.0,88,0.00,,,0.00,Wunderground v.1.13,2013-02-12 07:20:00,
2013-02-12 01:22:00,9.7,7.1,30.01,WSW,252,0.0,2.0,89,0.00,,,0.00,Wunderground v.1.13,2013-02-12 07:22:00,
2013-02-12 01:23:00,9.6,7.0,30.01,WSW,252,1.0,2.0,89,0.00,,,0.00,Wunderground v.1.13,2013-02-12 07:23:00,
2013-02-12 01:26:00,9.6,7.0,30.01,WSW,252,1.0,1.0,89,0.00,,,0.00,Wunderground v.1.13,2013-02-12 07:26:00,
2013-02-12 01:28:00,9.5,6.9,30.01,WSW,252,1.0,1.0,89,0.00,,,0.00,Wunderground v.1.13,2013-02-12 07:28:00,
2013-02-12 01:29:00,9.4,6.8,30.01,WSW,252,1.0,1.0,89,0.00,,,0.00,Wunderground v.1.13,2013-02-12 07:29:00,
2013-02-12 01:33:00,9.3,6.7,30.00,WSW,252,1.0,2.0,89,0.00,,,0.00,Wunderground v.1.13,2013-02-12 07:33:00,
2013-02-12 01:36:00,9.3,6.7,30.00,WSW,252,1.0,1.0,89,0.00,,,0.00,Wunderground v.1.13,2013-02-12 07:36:00,
2013-02-12 01:39:00,9.3,6.7,30.00,WSW,250,1.0,1.0,89,0.00,,,0.00,Wunderground v.1.13,2013-02-12 07:39:00,
2013-02-12 01:41:00,9.2,6.6,30.00,WSW,252,1.0,1.0,89,0.00,,,0.00,Wunderground v.1.13,2013-02-12 07:41:00,
2013-02-12 01:42:00,9.1,6.5,30.00,WSW,252,1.0,1.0,89,0.00,,,0.00,Wunderground v.1.13,2013-02-12 07:42:00,
2013-02-12 01:47:00,9.0,6.4,30.00,WSW,252,0.0,1.0,89,0.00,,,0.00,Wunderground v.1.13,2013-02-12 07:47:00,
2013-02-12 01:48:00,9.0,6.4,30.00,WSW,250,0.0,1.0,89,0.00,,,0.00,Wunderground v.1.13,2013-02-12 07:48:00,
2013-02-12 01:50:00,8.9,6.3,30.00,WSW,252,0.0,0.0,89,0.00,,,0.00,Wunderground v.1.13,2013-02-12 07:50:00,
2013-02-12 01:54:00,8.7,6.1,30.00,WSW,252,0.0,0.0,89,0.00,,,0.00,Wunderground v.1.13,2013-02-12 07:54:00,
2013-02-12 01:55:00,8.7,6.1,30.00,WSW,251,0.0,0.0,89,0.00,,,0.00,Wunderground v.1.13,2013-02-12 07:55:00,
2013-02-12 01:58:00,8.7,6.1,30.00,WSW,252,0.0,1.0,89,0.00,,,0.00,Wunderground v.1.13,2013-02-12 07:58:00,
2013-02-12 02:01:00,8.6,6.0,30.00,WSW,252,0.0,1.0,89,0.00,,,0.00,Wunderground v.1.13,2013-02-12 08:01:00,
2013-02-12 02:02:00,8.6,6.0,30.00,WSW,252,1.0,1.0,89,0.00,,,0.00,Wunderground v.1.13,2013-02-12 08:02:00,
2013-02-12 02:05:00,8.6,6.0,30.01,WSW,252,1.0,1.0,89,0.00,,,0.00,Wunderground v.1.13,2013-02-12 08:05:00,
2013-02-12 02:08:00,8.5,5.9,30.01,WSW,252,1.0,1.0,89,0.00,,,0.00,Wunderground v.1.13,2013-02-12 08:08:00,
2013-02-12 02:13:00,8.4,5.8,30.01,WSW,252,0.0,0.0,89,0.00,,,0.00,Wunderground v.1.13,2013-02-12 08:13:00,
2013-02-12 02:15:00,8.3,5.7,30.01,WSW,252,0.0,0.0,89,0.00,,,0.00,Wunderground v.1.13,2013-02-12 08:15:00,
2013-02-12 02:17:00,8.2,5.6,30.01,WSW,252,0.0,0.0,89,0.00,,,0.00,Wunderground v.1.13,2013-02-12 08:17:00,
2013-02-12 02:20:00,8.1,5.5,30.01,WSW,252,0.0,0.0,89,0.00,,,0.00,Wunderground v.1.13,2013-02-12 08:20:00,
2013-02-12 02:23:00,8.0,5.4,30.01,WSW,252,0.0,0.0,89,0.00,,,0.00,Wunderground v.1.13,2013-02-12 08:23:00,
2013-02-12 02:24:00,8.0,5.4,30.01,WSW,251,0.0,0.0,89,0.00,,,0.00,Wunderground v.1.13,2013-02-12 08:24:00,
2013-02-12 02:27:00,7.9,5.3,30.01,WSW,252,0.0,0.0,89,0.00,,,0.00,Wunderground v.1.13,2013-02-12 08:27:00,
2013-02-12 02:32:00,7.6,5.0,30.01,WSW,252,0.0,0.0,89,0.00,,,0.00,Wunderground v.1.13,2013-02-12 08:32:00,
2013-02-12 02:34:00,7.6,5.0,30.01,WSW,252,0.0,0.0,89,0.00,,,0.00,Wunderground v.1.13,2013-02-12 08:34:00,
2013-02-12 02:36:00,7.6,5.0,30.01,WSW,252,0.0,1.0,89,0.00,,,0.00,Wunderground v.1.13,2013-02-12 08:36:00,
2013-02-12 02:37:00,7.6,5.0,30.01,WSW,252,0.0,1.0,89,0.00,,,0.00,Wunderground v.1.13,2013-02-12 08:37:00,
2013-02-12 02:42:00,7.7,5.1,30.01,WSW,252,0.0,0.0,89,0.00,,,0.00,Wunderground v.1.13,2013-02-12 08:42:00,
2013-02-12 02:43:00,7.8,5.2,30.01,WSW,252,0.0,0.0,89,0.00,,,0.00,Wunderground v.1.13,2013-02-12 08:43:00,
2013-02-12 02:44:00,7.8,5.2,30.01,WSW,252,0.0,0.0,89,0.00,,,0.00,Wunderground v.1.13,2013-02-12 08:44:00,
2013-02-12 02:46:00,7.9,5.6,30.01,WSW,252,0.0,1.0,90,0.00,,,0.00,Wunderground v.1.13,2013-02-12 08:46:00,
2013-02-12 02:49:00,8.1,5.8,30.01,WSW,252,1.0,1.0,90,0.00,,,0.00,Wunderground v.1.13,2013-02-12 08:49:00,
2013-02-12 02:51:00,8.2,5.9,30.01,WSW,252,1.0,1.0,90,0.00,,,0.00,Wunderground v.1.13,2013-02-12 08:51:00,
2013-02-12 02:52:00,8.2,5.9,30.00,WSW,252,1.0,1.0,90,0.00,,,0.00,Wunderground v.1.13,2013-02-12 08:52:00,
2013-02-12 02:54:00,8.4,6.1,30.00,WSW,252,1.0,1.0,90,0.00,,,0.00,Wunderground v.1.13,2013-02-12 08:54:00,
2013-02-12 02:55:00,8.4,6.1,30.00,WSW,252,1.0,1.0,90,0.00,,,0.00,Wunderground v.1.13,2013-02-12 08:55:00,
2013-02-12 02:57:00,8.5,6.2,30.00,WSW,252,0.0,0.0,90,0.00,,,0.00,Wunderground v.1.13,2013-02-12 08:57:00,
2013-02-12 03:01:00,8.5,6.2,30.00,WSW,250,0.0,1.0,90,0.00,,,0.00,Wunderground v.1.13,2013-02-12 09:01:00,
2013-02-12 03:02:00,8.5,6.2,30.00,WSW,252,0.0,1.0,90,0.00,,,0.00,Wunderground v.1.13,2013-02-12 09:02:00,
2013-02-12 03:05:00,8.5,6.2,30.00,WSW,252,0.0,0.0,90,0.00,,,0.00,Wunderground v.1.13,2013-02-12 09:05:00,
2013-02-12 03:08:00,8.5,6.2,30.00,WSW,252,0.0,0.0,90,0.00,,,0.00,Wunderground v.1.13,2013-02-12 09:08:00,
2013-02-12 03:09:00,8.5,6.2,30.00,WSW,252,0.0,0.0,90,0.00,,,0.00,Wunderground v.1.13,2013-02-12 09:09:00,
2013-02-12 03:10:00,8.6,6.3,30.00,WSW,252,0.0,0.0,90,0.00,,,0.00,Wunderground v.1.13,2013-02-12 09:10:00,
2013-02-12 03:12:00,8.7,6.4,30.00,WSW,252,1.0,2.0,90,0.00,,,0.00,Wunderground v.1.13,2013-02-12 09:12:00,
2013-02-12 03:14:00,9.0,6.7,30.00,WSW,252,1.0,2.0,90,0.00,,,0.00,Wunderground v.1.13,2013-02-12 09:14:00,
2013-02-12 03:16:00,9.1,6.8,30.00,WSW,252,1.0,1.0,90,0.00,,,0.00,Wunderground v.1.13,2013-02-12 09:16:00,
2013-02-12 03:18:00,9.4,7.1,30.00,WSW,252,1.0,2.0,90,0.00,,,0.00,Wunderground v.1.13,2013-02-12 09:18:00,
2013-02-12 03:21:00,9.7,7.4,30.00,WSW,251,1.0,2.0,90,0.00,,,0.00,Wunderground v.1.13,2013-02-12 09:21:00,
2013-02-12 03:22:00,9.8,7.5,30.00,WSW,252,1.0,2.0,90,0.00,,,0.00,Wunderground v.1.13,2013-02-12 09:22:00,
2013-02-12 03:27:00,10.1,7.8,30.00,WSW,252,1.0,1.0,90,0.00,,,0.00,Wunderground v.1.13,2013-02-12 09:27:00,
2013-02-12 03:28:00,10.2,7.9,30.00,WSW,252,1.0,1.0,90,0.00,,,0.00,Wunderground v.1.13,2013-02-12 09:28:00,
2013-02-12 03:29:00,10.3,8.0,30.00,WSW,252,0.0,1.0,90,0.00,,,0.00,Wunderground v.1.13,2013-02-12 09:29:00,
2013-02-12 03:32:00,10.3,8.0,30.00,WSW,252,0.0,1.0,90,0.00,,,0.00,Wunderground v.1.13,2013-02-12 09:32:00,
2013-02-12 03:34:00,10.5,8.1,30.00,WSW,252,0.0,2.0,90,0.00,,,0.00,Wunderground v.1.13,2013-02-12 09:34:00,
2013-02-12 03:35:00,10.5,8.1,30.00,WSW,252,0.0,2.0,90,0.00,,,0.00,Wunderground v.1.13,2013-02-12 09:35:00,
2013-02-12 03:39:00,10.8,8.4,30.00,WSW,251,1.0,1.0,90,0.00,,,0.00,Wunderground v.1.13,2013-02-12 09:39:00,
2013-02-12 03:41:00,11.0,8.6,30.00,WSW,252,1.0,1.0,90,0.00,,,0.00,Wunderground v.1.13,2013-02-12 09:41:00,
2013-02-12 03:42:00,11.1,8.7,30.00,WSW,252,1.0,1.0,90,0.00,,,0.00,Wunderground v.1.13,2013-02-12 09:42:00,
2013-02-12 03:43:00,11.1,8.7,30.00,WSW,252,1.0,1.0,90,0.00,,,0.00,Wunderground v.1.13,2013-02-12 09:43:00,
2013-02-12 03:47:00,11.4,9.0,29.99,WSW,252,1.0,1.0,90,0.00,,,0.00,Wunderground v.1.13,2013-02-12 09:47:00,
2013-02-12 03:50:00,11.5,9.1,29.99,WSW,252,1.0,1.0,90,0.00,,,0.00,Wunderground v.1.13,2013-02-12 09:50:00,
2013-02-12 03:53:00,11.7,9.3,29.99,WSW,252,0.0,1.0,90,0.00,,,0.00,Wunderground v.1.13,2013-02-12 09:53:00,
2013-02-12 03:54:00,11.8,9.7,29.99,WSW,251,0.0,1.0,91,0.00,,,0.00,Wunderground v.1.13,2013-02-12 09:54:00,
2013-02-12 03:56:00,12.1,10.0,29.99,WSW,252,0.0,0.0,91,0.00,,,0.00,Wunderground v.1.13,2013-02-12 09:56:00,
2013-02-12 04:01:00,12.5,10.4,29.99,WSW,248,0.0,1.0,91,0.00,,,0.00,Wunderground v.1.13,2013-02-12 10:01:00,
2013-02-12 04:02:00,12.5,10.4,29.99,WSW,248,0.0,1.0,91,0.00,,,0.00,Wunderground v.1.13,2013-02-12 10:02:00,
2013-02-12 04:03:00,12.6,10.5,29.99,WSW,248,0.0,1.0,91,0.00,,,0.00,Wunderground v.1.13,2013-02-12 10:03:00,
2013-02-12 04:08:00,13.0,10.9,29.99,WSW,248,0.0,3.0,91,0.00,,,0.00,Wunderground v.1.13,2013-02-12 10:08:00,
2013-02-12 04:09:00,13.0,10.9,29.99,WSW,248,0.0,3.0,91,0.00,,,0.00,Wunderground v.1.13,2013-02-12 10:09:00,
2013-02-12 04:11:00,13.1,11.0,29.99,WSW,245,0.0,0.0,91,0.00,,,0.00,Wunderground v.1.13,2013-02-12 10:11:00,
2013-02-12 04:13:00,13.1,11.0,29.99,WSW,245,0.0,1.0,91,0.00,,,0.00,Wunderground v.1.13,2013-02-12 10:13:00,
2013-02-12 04:16:00,13.3,10.9,29.99,WSW,245,0.0,0.0,90,0.00,,,0.00,Wunderground v.1.13,2013-02-12 10:16:00,
2013-02-12 04:18:00,13.4,11.0,29.99,WSW,245,0.0,0.0,90,0.00,,,0.00,Wunderground v.1.13,2013-02-12 10:18:00,
2013-02-12 04:20:00,13.4,11.3,29.99,WSW,245,0.0,1.0,91,0.00,,,0.00,Wunderground v.1.13,2013-02-12 10:20:00,
2013-02-12 04:22:00,13.6,11.5,29.98,WSW,245,0.0,1.0,91,0.00,,,0.00,Wunderground v.1.13,2013-02-12 10:22:00,
2013-02-12 04:24:00,13.7,11.6,29.98,WSW,245,0.0,1.0,91,0.00,,,0.00,Wunderground v.1.13,2013-02-12 10:24:00,
2013-02-12 04:27:00,13.9,11.5,29.98,WSW,245,0.0,2.0,90,0.00,,,0.00,Wunderground v.1.13,2013-02-12 10:27:00,
2013-02-12 04:30:00,14.0,11.6,29.98,WSW,245,0.0,0.0,90,0.00,,,0.00,Wunderground v.1.13,2013-02-12 10:30:00,
2013-02-12 04:32:00,14.1,12.0,29.98,WSW,245,0.0,0.0,91,0.00,,,0.00,Wunderground v.1.13,2013-02-12 10:32:00,
2013-02-12 04:33:00,14.1,12.0,29.98,WSW,245,0.0,1.0,91,0.00,,,0.00,Wunderground v.1.13,2013-02-12 10:33:00,
2013-02-12 04:36:00,14.2,11.8,29.98,WSW,245,0.0,0.0,90,0.00,,,0.00,Wunderground v.1.13,2013-02-12 10:36:00,
2013-02-12 04:39:00,14.3,11.9,29.98,WSW,245,0.0,0.0,90,0.00,,,0.00,Wunderground v.1.13,2013-02-12 10:39:00,
2013-02-12 04:40:00,14.4,12.0,29.98,WSW,245,0.0,0.0,90,0.00,,,0.00,Wunderground v.1.13,2013-02-12 10:40:00,
2013-02-12 04:42:00,14.5,12.1,29.98,WSW,245,0.0,0.0,90,0.00,,,0.00,Wunderground v.1.13,2013-02-12 10:42:00,
2013-02-12 04:47:00,14.5,12.1,29.98,WSW,245,0.0,0.0,90,0.00,,,0.00,Wunderground v.1.13,2013-02-12 10:47:00,
2013-02-12 04:48:00,14.5,12.1,29.98,WSW,245,0.0,0.0,90,0.00,,,0.00,Wunderground v.1.13,2013-02-12 10:48:00,
2013-02-12 04:50:00,14.6,12.2,29.98,WSW,245,0.0,0.0,90,0.00,,,0.00,Wunderground v.1.13,2013-02-12 10:50:00,
2013-02-12 04:52:00,14.7,12.3,29.98,WSW,245,0.0,0.0,90,0.00,,,0.00,Wunderground v.1.13,2013-02-12 10:52:00,
2013-02-12 04:53:00,14.7,12.3,29.98,WSW,245,0.0,0.0,90,0.00,,,0.00,Wunderground v.1.13,2013-02-12 10:53:00,
2013-02-12 04:55:00,14.7,12.3,29.98,WSW,245,0.0,0.0,90,0.00,,,0.00,Wunderground v.1.13,2013-02-12 10:55:00,
2013-02-12 04:59:00,14.7,12.3,29.98,WSW,245,0.0,0.0,90,0.00,,,0.00,Wunderground v.1.13,2013-02-12 10:59:00,
2013-02-12 05:02:00,14.7,12.3,29.98,WSW,245,0.0,0.0,90,0.00,,,0.00,Wunderground v.1.13,2013-02-12 11:02:00,
2013-02-12 05:06:00,14.6,12.2,29.98,WSW,245,0.0,1.0,90,0.00,,,0.00,Wunderground v.1.13,2013-02-12 11:06:00,
2013-02-12 05:09:00,14.5,12.1,29.98,WSW,245,1.0,3.0,90,0.00,,,0.00,Wunderground v.1.13,2013-02-12 11:09:00,
2013-02-12 05:11:00,14.5,12.1,29.98,WSW,245,1.0,1.0,90,0.00,,,0.00,Wunderground v.1.13,2013-02-12 11:11:00,
2013-02-12 05:14:00,14.5,12.1,29.98,WSW,245,1.0,1.0,90,0.00,,,0.00,Wunderground v.1.13,2013-02-12 11:14:00,
2013-02-12 05:15:00,14.5,12.1,29.98,WSW,245,1.0,2.0,90,0.00,,,0.00,Wunderground v.1.13,2013-02-12 11:15:00,
2013-02-12 05:16:00,14.5,12.1,29.98,WSW,245,1.0,2.0,90,0.00,,,0.00,Wunderground v.1.13,2013-02-12 11:16:00,
2013-02-12 05:20:00,14.5,12.1,29.98,WSW,245,0.0,0.0,90,0.00,,,0.00,Wunderground v.1.13,2013-02-12 11:20:00,
2013-02-12 05:22:00,14.6,12.2,29.98,WSW,245,0.0,0.0,90,0.00,,,0.00,Wunderground v.1.13,2013-02-12 11:22:00,
2013-02-12 05:23:00,14.6,12.2,29.98,WSW,245,0.0,0.0,90,0.00,,,0.00,Wunderground v.1.13,2013-02-12 11:23:00,
2013-02-12 05:27:00,14.7,12.3,29.98,WSW,245,0.0,0.0,90,0.00,,,0.00,Wunderground v.1.13,2013-02-12 11:27:00,
2013-02-12 05:29:00,14.7,12.3,29.98,WSW,245,0.0,0.0,90,0.00,,,0.00,Wunderground v.1.13,2013-02-12 11:29:00,
2013-02-12 05:30:00,14.8,12.4,29.98,WSW,245,0.0,0.0,90,0.00,,,0.00,Wunderground v.1.13,2013-02-12 11:30:00,
2013-02-12 05:32:00,14.9,12.5,29.97,WSW,245,0.0,0.0,90,0.00,,,0.00,Wunderground v.1.13,2013-02-12 11:32:00,
2013-02-12 05:36:00,15.1,12.7,29.97,WSW,245,0.0,1.0,90,0.00,,,0.00,Wunderground v.1.13,2013-02-12 11:36:00,
2013-02-12 05:38:00,15.1,12.7,29.97,WSW,245,0.0,2.0,90,0.00,,,0.00,Wunderground v.1.13,2013-02-12 11:38:00,
2013-02-12 05:39:00,15.1,12.7,29.97,WSW,245,1.0,2.0,90,0.00,,,0.00,Wunderground v.1.13,2013-02-12 11:39:00,
2013-02-12 05:43:00,15.1,12.7,29.97,WSW,245,1.0,1.0,90,0.00,,,0.00,Wunderground v.1.13,2013-02-12 11:43:00,
2013-02-12 05:44:00,15.1,12.7,29.97,WSW,245,1.0,1.0,90,0.00,,,0.00,Wunderground v.1.13,2013-02-12 11:44:00,
2013-02-12 05:45:00,15.1,12.7,29.97,WSW,245,1.0,2.0,90,0.00,,,0.00,Wunderground v.1.13,2013-02-12 11:45:00,
2013-02-12 05:48:00,15.4,13.0,29.97,WSW,245,1.0,2.0,90,0.00,,,0.00,Wunderground v.1.13,2013-02-12 11:48:00,
2013-02-12 05:49:00,15.4,13.0,29.97,WSW,245,0.0,2.0,90,0.00,,,0.00,Wunderground v.1.13,2013-02-12 11:49:00,
2013-02-12 05:50:00,15.4,13.0,29.97,WSW,245,0.0,0.0,90,0.00,,,0.00,Wunderground v.1.13,2013-02-12 11:50:00,
2013-02-12 05:54:00,15.5,13.1,29.97,WSW,245,0.0,2.0,90,0.00,,,0.00,Wunderground v.1.13,2013-02-12 11:54:00,
2013-02-12 05:56:00,15.6,13.2,29.97,WSW,245,0.0,0.0,90,0.00,,,0.00,Wunderground v.1.13,2013-02-12 11:56:00,
2013-02-12 05:58:00,15.6,13.2,29.97,WSW,245,0.0,0.0,90,0.00,,,0.00,Wunderground v.1.13,2013-02-12 11:58:00,
2013-02-12 06:03:00,15.7,13.3,29.96,WSW,245,1.0,1.0,90,0.00,,,0.00,Wunderground v.1.13,2013-02-12 12:03:00,
2013-02-12 06:05:00,15.6,13.2,29.96,WSW,245,1.0,2.0,90,0.00,,,0.00,Wunderground v.1.13,2013-02-12 12:05:00,
2013-02-12 06:08:00,15.6,13.2,29.96,WSW,245,1.0,4.0,90,0.00,,,0.00,Wunderground v.1.13,2013-02-12 12:08:00,
2013-02-12 06:09:00,15.6,13.2,29.96,WSW,245,1.0,4.0,90,0.00,,,0.00,Wunderground v.1.13,2013-02-12 12:09:00,
2013-02-12 06:10:00,15.6,13.2,29.96,WSW,245,1.0,1.0,90,0.00,,,0.00,Wunderground v.1.13,2013-02-12 12:10:00,
2013-02-12 06:15:00,15.5,13.1,29.96,WSW,245,0.0,0.0,90,0.00,,,0.00,Wunderground v.1.13,2013-02-12 12:15:00,
2013-02-12 06:17:00,15.5,13.1,29.96,WSW,245,0.0,0.0,90,0.00,,,0.00,Wunderground v.1.13,2013-02-12 12:17:00,
2013-02-12 06:19:00,15.5,13.1,29.96,WSW,245,0.0,1.0,90,0.00,,,0.00,Wunderground v.1.13,2013-02-12 12:19:00,
2013-02-12 06:22:00,15.5,13.1,29.96,SSW,205,0.0,1.0,90,0.00,,,0.00,Wunderground v.1.13,2013-02-12 12:22:00,
2013-02-12 06:23:00,15.4,13.0,29.96,SSW,205,0.0,1.0,90,0.00,,,0.00,Wunderground v.1.13,2013-02-12 12:23:00,
2013-02-12 06:24:00,15.4,13.0,29.96,SSW,205,0.0,1.0,90,0.00,,,0.00,Wunderground v.1.13,2013-02-12 12:24:00,
2013-02-12 06:29:00,15.3,12.9,29.96,SSW,205,1.0,1.0,90,0.00,,,0.00,Wunderground v.1.13,2013-02-12 12:29:00,
2013-02-12 06:32:00,15.2,12.8,29.96,SSW,205,1.0,1.0,90,0.00,,,0.00,Wunderground v.1.13,2013-02-12 12:32:00,
2013-02-12 06:33:00,15.2,12.8,29.96,SSW,205,0.0,1.0,90,0.00,,,0.00,Wunderground v.1.13,2013-02-12 12:33:00,
2013-02-12 06:35:00,15.1,12.7,29.96,SSW,205,0.0,1.0,90,0.00,,,0.00,Wunderground v.1.13,2013-02-12 12:35:00,
2013-02-12 06:38:00,15.0,12.6,29.96,SSW,205,0.0,1.0,90,0.00,,,0.00,Wunderground v.1.13,2013-02-12 12:38:00,
2013-02-12 06:39:00,15.0,12.6,29.96,SSW,205,0.0,1.0,90,0.00,,,0.00,Wunderground v.1.13,2013-02-12 12:39:00,
2013-02-12 06:44:00,14.8,12.4,29.96,SSW,205,0.0,0.0,90,0.00,,,0.00,Wunderground v.1.13,2013-02-12 12:44:00,
2013-02-12 06:46:00,14.8,12.4,29.96,SSW,205,0.0,0.0,90,0.00,,,0.00,Wunderground v.1.13,2013-02-12 12:46:00,
2013-02-12 06:47:00,14.8,12.4,29.96,SSW,205,0.0,0.0,90,0.00,,,0.00,Wunderground v.1.13,2013-02-12 12:47:00,
2013-02-12 06:49:00,14.7,12.0,29.96,SSW,205,0.0,0.0,89,0.00,,,0.00,Wunderground v.1.13,2013-02-12 12:49:00,
2013-02-12 06:51:00,14.6,12.2,29.96,SSW,205,0.0,0.0,90,0.00,,,0.00,Wunderground v.1.13,2013-02-12 12:51:00,
2013-02-12 06:56:00,14.3,11.7,29.96,SSW,205,0.0,0.0,89,0.00,,,0.00,Wunderground v.1.13,2013-02-12 12:56:00,
2013-02-12 06:58:00,14.2,11.6,29.96,SSW,205,0.0,0.0,89,0.00,,,0.00,Wunderground v.1.13,2013-02-12 12:58:00,
2013-02-12 07:00:00,14.1,11.5,29.96,SSW,205,0.0,0.0,89,0.00,,,0.00,Wunderground v.1.13,2013-02-12 13:00:00,
2013-02-12 07:02:00,14.0,11.4,29.96,SSW,205,0.0,0.0,89,0.00,,,0.00,Wunderground v.1.13,2013-02-12 13:02:00,
2013-02-12 07:03:00,13.9,11.3,29.96,SSW,205,0.0,0.0,89,0.00,,,0.00,Wunderground v.1.13,2013-02-12 13:03:00,
2013-02-12 07:06:00,13.8,11.2,29.95,SSW,205,0.0,0.0,89,0.00,,,0.00,Wunderground v.1.13,2013-02-12 13:06:00,
2013-02-12 07:10:00,13.6,11.0,29.95,SSW,205,0.0,0.0,89,0.00,,,0.00,Wunderground v.1.13,2013-02-12 13:10:00,
2013-02-12 07:11:00,13.5,10.9,29.95,SSW,205,0.0,0.0,89,0.00,,,0.00,Wunderground v.1.13,2013-02-12 13:11:00,
2013-02-12 07:16:00,13.2,10.6,29.95,SSW,205,0.0,0.0,89,0.00,,,0.00,Wunderground v.1.13,2013-02-12 13:16:00,
2013-02-12 07:18:00,13.1,10.5,29.95,SSW,205,0.0,0.0,89,0.00,,,0.00,Wunderground v.1.13,2013-02-12 13:18:00,
2013-02-12 07:20:00,13.0,10.4,29.95,SSW,205,0.0,0.0,89,0.00,,,0.00,Wunderground v.1.13,2013-02-12 13:20:00,
2013-02-12 07:22:00,12.9,10.3,29.95,SSW,205,0.0,0.0,89,0.00,,,0.00,Wunderground v.1.13,2013-02-12 13:22:00,
2013-02-12 07:24:00,12.7,10.1,29.95,SSW,205,0.0,0.0,89,0.00,,,0.00,Wunderground v.1.13,2013-02-12 13:24:00,
2013-02-12 07:28:00,12.6,10.0,29.95,SSW,205,0.0,0.0,89,0.00,,,0.00,Wunderground v.1.13,2013-02-12 13:28:00,
2013-02-12 07:29:00,12.5,9.9,29.95,SSW,205,0.0,0.0,89,0.00,,,0.00,Wunderground v.1.13,2013-02-12 13:29:00,
2013-02-12 07:32:00,12.5,9.9,29.94,SSW,205,0.0,0.0,89,0.00,,,0.00,Wunderground v.1.13,2013-02-12 13:32:00,
2013-02-12 07:38:00,12.3,9.7,29.95,SSW,205,0.0,0.0,89,0.00,,,0.00,Wunderground v.1.13,2013-02-12 13:38:00,
2013-02-12 07:40:00,12.3,9.9,29.95,SSW,205,0.0,1.0,90,0.00,,,0.00,Wunderground v.1.13,2013-02-12 13:40:00,
2013-02-12 07:42:00,12.5,10.1,29.95,SSW,205,0.0,1.0,90,0.00,,,0.00,Wunderground v.1.13,2013-02-12 13:42:00,
2013-02-12 07:43:00,12.5,10.1,29.94,SSW,205,0.0,1.0,90,0.00,,,0.00,Wunderground v.1.13,2013-02-12 13:43:00,
2013-02-12 07:44:00,12.5,10.1,29.94,SSW,205,0.0,1.0,90,0.00,,,0.00,Wunderground v.1.13,2013-02-12 13:44:00,
2013-02-12 07:46:00,12.6,10.2,29.94,SSW,205,0.0,0.0,90,0.00,,,0.00,Wunderground v.1.13,2013-02-12 13:46:00,
2013-02-12 07:48:00,12.8,10.4,29.94,SSW,205,0.0,4.0,90,0.00,,,0.00,Wunderground v.1.13,2013-02-12 13:48:00,
2013-02-12 07:49:00,12.8,10.4,29.94,SSW,205,0.0,4.0,90,0.00,,,0.00,Wunderground v.1.13,2013-02-12 13:49:00,
2013-02-12 07:53:00,13.1,10.7,29.94,SSW,205,1.0,4.0,90,0.00,,,0.00,Wunderground v.1.13,2013-02-12 13:53:00,
2013-02-12 07:55:00,13.2,10.8,29.94,SSW,205,1.0,4.0,90,0.00,,,0.00,Wunderground v.1.13,2013-02-12 13:55:00,
2013-02-12 07:58:00,13.4,11.0,29.93,SSW,205,2.0,4.0,90,0.00,,,0.00,Wunderground v.1.13,2013-02-12 13:58:00,
2013-02-12 08:01:00,13.8,11.4,29.94,SSW,205,2.0,2.0,90,0.00,,,0.00,Wunderground v.1.13,2013-02-12 14:01:00,
2013-02-12 08:06:00,14.6,12.5,29.93,South,187,2.0,2.0,91,0.00,,,0.00,Wunderground v.1.13,2013-02-12 14:06:00,
2013-02-12 08:07:00,14.7,12.6,29.93,South,187,2.0,2.0,91,0.00,,,0.00,Wunderground v.1.13,2013-02-12 14:07:00,
2013-02-12 08:12:00,15.2,12.8,29.93,SE,133,2.0,6.0,90,0.00,,,0.00,Wunderground v.1.13,2013-02-12 14:12:00,
2013-02-12 08:13:00,15.2,12.8,29.93,South,169,2.0,6.0,90,0.00,,,0.00,Wunderground v.1.13,2013-02-12 14:13:00,
2013-02-12 08:18:00,15.6,13.2,29.93,SE,142,2.0,5.0,90,0.00,,,0.00,Wunderground v.1.13,2013-02-12 14:18:00,
2013-02-12 08:21:00,15.6,12.9,29.93,SSE,153,3.0,6.0,89,0.00,,,0.00,Wunderground v.1.13,2013-02-12 14:21:00,
2013-02-12 08:26:00,15.9,13.2,29.93,SSE,148,3.0,5.0,89,0.00,,,0.00,Wunderground v.1.13,2013-02-12 14:26:00,
2013-02-12 08:27:00,15.9,13.2,29.93,SSE,148,3.0,5.0,89,0.00,,,0.00,Wunderground v.1.13,2013-02-12 14:27:00,
2013-02-12 08:30:00,16.1,13.2,29.93,SE,142,3.0,4.0,88,0.00,,,0.00,Wunderground v.1.13,2013-02-12 14:30:00,
2013-02-12 08:31:00,16.2,13.3,29.93,SE,142,3.0,4.0,88,0.00,,,0.00,Wunderground v.1.13,2013-02-12 14:31:00,
2013-02-12 08:33:00,16.5,13.6,29.93,ESE,105,3.0,5.0,88,0.00,,,0.00,Wunderground v.1.13,2013-02-12 14:33:00,
2013-02-12 08:36:00,16.8,13.9,29.92,SE,132,3.0,3.0,88,0.00,,,0.00,Wunderground v.1.13,2013-02-12 14:36:00,
2013-02-12 08:39:00,17.1,14.2,29.92,SE,130,3.0,5.0,88,0.00,,,0.00,Wunderground v.1.13,2013-02-12 14:39:00,
2013-02-12 08:40:00,17.2,14.3,29.92,SE,130,3.0,3.0,88,0.00,,,0.00,Wunderground v.1.13,2013-02-12 14:40:00,
2013-02-12 08:44:00,17.6,14.4,29.92,ESE,120,3.0,5.0,87,0.00,,,0.00,Wunderground v.1.13,2013-02-12 14:44:00,
2013-02-12 08:45:00,17.7,14.5,29.92,ESE,120,3.0,3.0,87,0.00,,,0.00,Wunderground v.1.13,2013-02-12 14:45:00,
2013-02-12 08:49:00,18.4,15.2,29.92,SE,126,3.0,4.0,87,0.00,,,0.00,Wunderground v.1.13,2013-02-12 14:49:00,
2013-02-12 08:51:00,18.7,15.5,29.92,SE,134,2.0,3.0,87,0.00,,,0.00,Wunderground v.1.13,2013-02-12 14:51:00,
2013-02-12 08:55:00,19.2,16.0,29.91,SW,234,2.0,8.0,87,0.00,,,0.00,Wunderground v.1.13,2013-02-12 14:55:00,
2013-02-12 08:57:00,19.3,15.8,29.91,SSW,209,3.0,8.0,86,0.00,,,0.00,Wunderground v.1.13,2013-02-12 14:57:00,
2013-02-12 09:00:00,19.6,16.1,29.91,SSE,150,3.0,5.0,86,0.00,,,0.00,Wunderground v.1.13,2013-02-12 15:00:00,
2013-02-12 09:02:00,19.8,16.3,29.92,ESE,119,3.0,6.0,86,0.00,,,0.00,Wunderground v.1.13,2013-02-12 15:02:00,
2013-02-12 09:04:00,20.0,16.5,29.91,ESE,123,4.0,6.0,86,0.00,,,0.00,Wunderground v.1.13,2013-02-12 15:04:00,
2013-02-12 09:08:00,20.7,17.2,29.91,SE,134,3.0,4.0,86,0.00,,,0.00,Wunderground v.1.13,2013-02-12 15:08:00,
2013-02-12 09:09:00,20.9,17.1,29.91,ESE,113,3.0,4.0,85,0.00,,,0.00,Wunderground v.1.13,2013-02-12 15:09:00,
2013-02-12 09:11:00,21.2,17.4,29.91,SSE,155,3.0,4.0,85,0.00,,,0.00,Wunderground v.1.13,2013-02-12 15:11:00,
2013-02-12 09:15:00,21.5,17.4,29.91,SSE,153,3.0,6.0,84,0.00,,,0.00,Wunderground v.1.13,2013-02-12 15:15:00,
2013-02-12 09:20:00,21.4,17.3,29.91,SW,221,4.0,6.0,84,0.00,,,0.00,Wunderground v.1.13,2013-02-12 15:20:00,
2013-02-12 09:21:00,21.3,17.2,29.91,SSW,194,4.0,6.0,84,0.00,,,0.00,Wunderground v.1.13,2013-02-12 15:21:00,
2013-02-12 09:23:00,21.3,17.2,29.91,ESE,123,4.0,6.0,84,0.00,,,0.00,Wunderground v.1.13,2013-02-12 15:23:00,
2013-02-12 09:26:00,21.3,17.2,29.91,SW,234,3.0,7.0,84,0.00,,,0.00,Wunderground v.1.13,2013-02-12 15:26:00,
2013-02-12 09:27:00,21.2,16.8,29.91,South,174,3.0,7.0,83,0.00,,,0.00,Wunderground v.1.13,2013-02-12 15:27:00,
2013-02-12 09:30:00,21.2,17.1,29.91,SW,222,3.0,3.0,84,0.00,,,0.00,Wunderground v.1.13,2013-02-12 15:30:00,
2013-02-12 09:31:00,21.2,17.1,29.91,SW,222,2.0,3.0,84,0.00,,,0.00,Wunderground v.1.13,2013-02-12 15:31:00,
2013-02-12 09:34:00,21.2,17.1,29.90,SSW,203,3.0,3.0,84,0.00,,,0.00,Wunderground v.1.13,2013-02-12 15:34:00,
2013-02-12 09:35:00,21.2,17.1,29.91,SSW,203,3.0,3.0,84,0.00,,,0.00,Wunderground v.1.13,2013-02-12 15:35:00,
2013-02-12 09:39:00,21.3,17.2,29.90,SW,215,2.0,3.0,84,0.00,,,0.00,Wunderground v.1.13,2013-02-12 15:39:00,
2013-02-12 09:41:00,21.3,17.2,29.90,SE,144,2.0,5.0,84,0.00,,,0.00,Wunderground v.1.13,2013-02-12 15:41:00,
2013-02-12 09:45:00,21.4,17.3,29.90,SE,128,2.0,2.0,84,0.00,,,0.00,Wunderground v.1.13,2013-02-12 15:45:00,
2013-02-12 09:47:00,21.5,17.4,29.90,South,182,2.0,4.0,84,0.00,,,0.00,Wunderground v.1.13,2013-02-12 15:47:00,
2013-02-12 09:50:00,21.7,17.6,29.90,South,184,2.0,2.0,84,0.00,,,0.00,Wunderground v.1.13,2013-02-12 15:50:00,
2013-02-12 09:51:00,21.8,17.7,29.90,SW,229,2.0,4.0,84,0.00,,,0.00,Wunderground v.1.13,2013-02-12 15:51:00,
2013-02-12 09:54:00,22.1,18.0,29.90,SSE,164,2.0,4.0,84,0.00,,,0.00,Wunderground v.1.13,2013-02-12 15:54:00,
2013-02-12 09:56:00,22.2,18.1,29.90,SE,136,2.0,2.0,84,0.00,,,0.00,Wunderground v.1.13,2013-02-12 15:56:00,
2013-02-12 09:57:00,22.4,18.3,29.90,SE,136,2.0,2.0,84,0.00,,,0.00,Wunderground v.1.13,2013-02-12 15:57:00,
2013-02-12 09:59:00,22.5,18.1,29.90,SSW,209,2.0,5.0,83,0.00,,,0.00,Wunderground v.1.13,2013-02-12 15:59:00,
2013-02-12 10:00:00,22.5,18.1,29.90,SSW,207,3.0,3.0,83,0.00,,,0.00,Wunderground v.1.13,2013-02-12 16:00:00,
2013-02-12 10:04:00,22.7,18.3,29.90,SE,140,3.0,5.0,83,0.00,,,0.00,Wunderground v.1.13,2013-02-12 16:04:00,
2013-02-12 10:05:00,22.8,18.4,29.90,SE,143,3.0,3.0,83,0.00,,,0.00,Wunderground v.1.13,2013-02-12 16:05:00,
2013-02-12 10:07:00,22.9,18.5,29.90,South,179,3.0,4.0,83,0.00,,,0.00,Wunderground v.1.13,2013-02-12 16:07:00,
2013-02-12 10:09:00,23.0,18.6,29.90,SSW,210,3.0,5.0,83,0.00,,,0.00,Wunderground v.1.13,2013-02-12 16:09:00,
2013-02-12 10:10:00,23.0,18.6,29.90,SSE,150,3.0,3.0,83,0.00,,,0.00,Wunderground v.1.13,2013-02-12 16:10:00,
2013-02-12 10:11:00,23.1,18.7,29.90,South,184,3.0,5.0,83,0.00,,,0.00,Wunderground v.1.13,2013-02-12 16:11:00,
2013-02-12 10:16:00,23.4,19.0,29.90,South,175,3.0,4.0,83,0.00,,,0.00,Wunderground v.1.13,2013-02-12 16:16:00,
2013-02-12 10:17:00,23.5,19.1,29.90,SE,142,3.0,4.0,83,0.00,,,0.00,Wunderground v.1.13,2013-02-12 16:17:00,
2013-02-12 10:18:00,23.6,19.2,29.90,SE,142,3.0,4.0,83,0.00,,,0.00,Wunderground v.1.13,2013-02-12 16:18:00,
2013-02-12 10:23:00,24.0,19.3,29.90,SE,132,3.0,5.0,82,0.00,,,0.00,Wunderground v.1.13,2013-02-12 16:23:00,
2013-02-12 10:24:00,24.0,19.3,29.90,SW,218,3.0,5.0,82,0.00,,,0.00,Wunderground v.1.13,2013-02-12 16:24:00,
2013-02-12 10:25:00,24.0,19.3,29.90,SSE,151,3.0,5.0,82,0.00,,,0.00,Wunderground v.1.13,2013-02-12 16:25:00,
2013-02-12 10:29:00,24.1,19.1,29.90,SW,223,4.0,5.0,81,0.00,,,0.00,Wunderground v.1.13,2013-02-12 16:29:00,
2013-02-12 10:31:00,24.1,19.1,29.89,SW,223,4.0,4.0,81,0.00,,,0.00,Wunderground v.1.13,2013-02-12 16:31:00,
2013-02-12 10:33:00,24.1,19.1,29.89,SSE,168,4.0,5.0,81,0.00,,,0.00,Wunderground v.1.13,2013-02-12 16:33:00,
2013-02-12 10:35:00,24.2,19.5,29.89,South,183,4.0,5.0,82,0.00,,,0.00,Wunderground v.1.13,2013-02-12 16:35:00,
2013-02-12 10:41:00,24.3,19.3,29.89,SW,218,4.0,7.0,81,0.00,,,0.00,Wunderground v.1.13,2013-02-12 16:41:00,
2013-02-12 10:47:00,25.1,20.1,29.89,SSW,199,5.0,5.0,81,0.00,,,0.00,Wunderground v.1.13,2013-02-12 16:47:00,
2013-02-12 10:48:00,25.2,20.2,29.89,SSE,167,4.0,5.0,81,0.00,,,0.00,Wunderground v.1.13,2013-02-12 16:48:00,
2013-02-12 10:51:00,25.5,20.2,29.89,SW,236,4.0,4.0,80,0.00,,,0.00,Wunderground v.1.13,2013-02-12 16:51:00,
2013-02-12 10:53:00,25.6,20.0,29.89,SW,234,4.0,4.0,79,0.00,,,0.00,Wunderground v.1.13,2013-02-12 16:53:00,
2013-02-12 10:56:00,25.8,20.2,29.89,SSE,159,4.0,8.0,79,0.00,,,0.00,Wunderground v.1.13,2013-02-12 16:56:00,
2013-02-12 10:59:00,25.7,20.1,29.89,SSE,155,5.0,8.0,79,0.00,,,0.00,Wunderground v.1.13,2013-02-12 16:59:00,
2013-02-12 11:00:00,25.7,20.1,29.89,South,182,5.0,6.0,79,0.00,,,0.00,Wunderground v.1.13,2013-02-12 17:00:00,
2013-02-12 11:03:00,25.8,20.2,29.88,South,188,4.0,6.0,79,0.00,,,0.00,Wunderground v.1.13,2013-02-12 17:03:00,
2013-02-12 11:05:00,25.9,20.3,29.88,WSW,242,4.0,4.0,79,0.00,,,0.00,Wunderground v.1.13,2013-02-12 17:05:00,
2013-02-12 11:07:00,26.1,20.5,29.88,WSW,242,3.0,4.0,79,0.00,,,0.00,Wunderground v.1.13,2013-02-12 17:07:00,
2013-02-12 11:08:00,26.2,20.6,29.88,SSW,197,3.0,4.0,79,0.00,,,0.00,Wunderground v.1.13,2013-02-12 17:08:00,
2013-02-12 11:10:00,26.4,20.8,29.88,South,182,3.0,3.0,79,0.00,,,0.00,Wunderground v.1.13,2013-02-12 17:10:00,
2013-02-12 11:16:00,26.8,20.9,29.88,SSW,198,4.0,6.0,78,0.00,,,0.00,Wunderground v.1.13,2013-02-12 17:16:00,
2013-02-12 11:17:00,26.9,21.0,29.88,SSW,198,4.0,6.0,78,0.00,,,0.00,Wunderground v.1.13,2013-02-12 17:17:00,
2013-02-12 11:18:00,26.9,21.3,29.88,SW,227,4.0,6.0,79,0.00,,,0.00,Wunderground v.1.13,2013-02-12 17:18:00,
2013-02-12 11:24:00,27.4,21.4,29.88,SSW,194,4.0,9.0,78,0.00,,,0.00,Wunderground v.1.13,2013-02-12 17:24:00,
2013-02-12 11:25:00,27.5,21.5,29.88,West,260,4.0,7.0,78,0.00,,,0.00,Wunderground v.1.13,2013-02-12 17:25:00,
2013-02-12 11:30:00,27.4,20.8,29.88,SW,234,5.0,5.0,76,0.00,,,0.00,Wunderground v.1.13,2013-02-12 17:30:00,
2013-02-12 11:31:00,27.4,20.8,29.88,SSW,203,5.0,5.0,76,0.00,,,0.00,Wunderground v.1.13,2013-02-12 17:31:00,
2013-02-12 11:32:00,27.5,21.2,29.88,South,175,5.0,5.0,77,0.00,,,0.00,Wunderground v.1.13,2013-02-12 17:32:00,
2013-02-12 11:34:00,27.5,20.9,29.87,WSW,245,5.0,5.0,76,0.00,,,0.00,Wunderground v.1.13,2013-02-12 17:34:00,
2013-02-12 11:38:00,27.6,21.0,29.87,WSW,248,5.0,6.0,76,0.00,,,0.00,Wunderground v.1.13,2013-02-12 17:38:00,
2013-02-12 11:40:00,27.6,21.0,29.87,SW,220,5.0,6.0,76,0.00,,,0.00,Wunderground v.1.13,2013-02-12 17:40:00,
2013-02-12 11:41:00,27.7,21.1,29.87,WSW,247,5.0,6.0,76,0.00,,,0.00,Wunderground v.1.13,2013-02-12 17:41:00,
2013-02-12 11:46:00,27.6,20.7,29.88,WSW,242,5.0,8.0,75,0.00,,,0.00,Wunderground v.1.13,2013-02-12 17:46:00,
2013-02-12 11:48:00,27.5,20.9,29.87,WSW,250,5.0,8.0,76,0.00,,,0.00,Wunderground v.1.13,2013-02-12 17:48:00,
2013-02-12 11:51:00,27.7,21.1,29.87,West,265,4.0,5.0,76,0.00,,,0.00,Wunderground v.1.13,2013-02-12 17:51:00,
2013-02-12 11:52:00,27.8,21.2,29.87,West,264,4.0,7.0,76,0.00,,,0.00,Wunderground v.1.13,2013-02-12 17:52:00,
2013-02-12 11:54:00,27.9,21.3,29.87,West,263,4.0,7.0,76,0.00,,,0.00,Wunderground v.1.13,2013-02-12 17:54:00,
2013-02-12 11:57:00,28.1,21.2,29.86,West,267,4.0,6.0,75,0.00,,,0.00,Wunderground v.1.13,2013-02-12 17:57:00,
2013-02-12 11:58:00,28.1,21.2,29.86,West,260,3.0,6.0,75,0.00,,,0.00,Wunderground v.1.13,2013-02-12 17:58:00,
2013-02-12 12:00:00,28.3,21.7,29.86,WSW,249,3.0,6.0,76,0.00,,,0.00,Wunderground v.1.13,2013-02-12 18:00:00,
2013-02-12 12:04:00,28.7,21.8,29.86,SW,234,3.0,6.0,75,0.00,,,0.00,Wunderground v.1.13,2013-02-12 18:04:00,
2013-02-12 12:05:00,28.8,21.9,29.86,WSW,254,3.0,3.0,75,0.00,,,0.00,Wunderground v.1.13,2013-02-12 18:05:00,
2013-02-12 12:06:00,28.9,22.0,29.86,WSW,248,3.0,3.0,75,0.00,,,0.00,Wunderground v.1.13,2013-02-12 18:06:00,
2013-02-12 12:11:00,28.8,21.6,29.86,WSW,257,4.0,7.0,74,0.00,,,0.00,Wunderground v.1.13,2013-02-12 18:11:00,
2013-02-12 12:12:00,28.7,21.1,29.86,WSW,240,5.0,7.0,73,0.00,,,0.00,Wunderground v.1.13,2013-02-12 18:12:00,
2013-02-12 12:17:00,28.6,21.4,29.86,WSW,237,5.0,7.0,74,0.00,,,0.00,Wunderground v.1.13,2013-02-12 18:17:00,
2013-02-12 12:18:00,28.6,21.4,29.86,WSW,257,5.0,8.0,74,0.00,,,0.00,Wunderground v.1.13,2013-02-12 18:18:00,
2013-02-12 12:24:00,28.5,21.3,29.86,SW,228,5.0,6.0,74,0.00,,,0.00,Wunderground v.1.13,2013-02-12 18:24:00,
2013-02-12 12:25:00,28.5,21.3,29.86,SSW,211,5.0,6.0,74,0.00,,,0.00,Wunderground v.1.13,2013-02-12 18:25:00,
2013-02-12 12:26:00,28.6,21.4,29.86,SW,214,5.0,6.0,74,0.00,,,0.00,Wunderground v.1.13,2013-02-12 18:26:00,
2013-02-12 12:30:00,29.0,21.7,29.85,SSW,199,5.0,5.0,74,0.00,,,0.00,Wunderground v.1.13,2013-02-12 18:30:00,
2013-02-12 12:32:00,29.1,21.8,29.85,SSW,194,4.0,5.0,74,0.00,,,0.00,Wunderground v.1.13,2013-02-12 18:32:00,
2013-02-12 12:36:00,29.5,22.2,29.85,WSW,238,4.0,5.0,74,0.00,,,0.00,Wunderground v.1.13,2013-02-12 18:36:00,
2013-02-12 12:38:00,29.6,22.0,29.84,SSW,195,4.0,5.0,73,0.00,,,0.00,Wunderground v.1.13,2013-02-12 18:38:00,
2013-02-12 12:39:00,29.7,22.1,29.84,WSW,248,4.0,5.0,73,0.00,,,0.00,Wunderground v.1.13,2013-02-12 18:39:00,
2013-02-12 12:44:00,29.7,22.1,29.84,SSE,159,4.0,7.0,73,0.00,,,0.00,Wunderground v.1.13,2013-02-12 18:44:00,
2013-02-12 12:45:00,29.8,22.2,29.84,SSW,213,4.0,6.0,73,0.00,,,0.00,Wunderground v.1.13,2013-02-12 18:45:00,
2013-02-12 12:48:00,29.9,22.3,29.84,SSE,153,4.0,6.0,73,0.00,,,0.00,Wunderground v.1.13,2013-02-12 18:48:00,
2013-02-12 12:50:00,30.1,22.5,29.84,SE,144,4.0,7.0,73,0.00,,,0.00,Wunderground v.1.13,2013-02-12 18:50:00,
2013-02-12 12:52:00,30.1,22.5,29.84,SE,144,4.0,7.0,73,0.00,,,0.00,Wunderground v.1.13,2013-02-12 18:52:00,
2013-02-12 12:55:00,30.3,22.4,29.83,SSE,157,4.0,4.0,72,0.00,,,0.00,Wunderground v.1.13,2013-02-12 18:55:00,
2013-02-12 12:58:00,30.3,22.0,29.83,West,259,3.0,5.0,71,0.00,,,0.00,Wunderground v.1.13,2013-02-12 18:58:00,
2013-02-12 12:59:00,30.3,22.0,29.83,West,276,3.0,7.0,71,0.00,,,0.00,Wunderground v.1.13,2013-02-12 18:59:00,
2013-02-12 13:01:00,30.3,22.0,29.83,West,264,3.0,6.0,71,0.00,,,0.00,Wunderground v.1.13,2013-02-12 19:01:00,
2013-02-12 13:04:00,30.2,21.6,29.83,West,259,4.0,6.0,70,0.00,,,0.01,Wunderground v.1.13,2013-02-12 19:04:00,
2013-02-12 13:05:00,30.2,21.9,29.84,SSW,200,4.0,4.0,71,0.00,,,0.01,Wunderground v.1.13,2013-02-12 19:05:00,
2013-02-12 13:10:00,30.4,22.4,29.83,SW,229,3.0,3.0,72,0.00,,,0.01,Wunderground v.1.13,2013-02-12 19:10:00,
2013-02-12 13:11:00,30.5,22.5,29.83,SW,231,3.0,3.0,72,0.00,,,0.01,Wunderground v.1.13,2013-02-12 19:11:00,
2013-02-12 13:14:00,30.9,22.6,29.83,SSW,201,2.0,3.0,71,0.00,,,0.01,Wunderground v.1.13,2013-02-12 19:14:00,
2013-02-12 13:16:00,31.0,22.7,29.83,SSW,195,2.0,2.0,71,0.00,,,0.01,Wunderground v.1.13,2013-02-12 19:16:00,
2013-02-12 13:18:00,31.0,22.4,29.83,WSW,257,2.0,6.0,70,0.00,,,0.01,Wunderground v.1.13,2013-02-12 19:18:00,
2013-02-12 13:21:00,31.1,22.8,29.83,West,259,2.0,3.0,71,0.00,,,0.01,Wunderground v.1.13,2013-02-12 19:21:00,
2013-02-12 13:22:00,31.2,22.9,29.83,WSW,252,3.0,4.0,71,0.00,,,0.01,Wunderground v.1.13,2013-02-12 19:22:00,
2013-02-12 13:26:00,31.2,22.5,29.82,South,171,3.0,4.0,70,0.00,,,0.01,Wunderground v.1.13,2013-02-12 19:26:00,
2013-02-12 13:27:00,31.3,23.0,29.82,South,171,3.0,4.0,71,0.00,,,0.01,Wunderground v.1.13,2013-02-12 19:27:00,
2013-02-12 13:29:00,31.4,22.7,29.82,WSW,247,3.0,4.0,70,0.00,,,0.02,Wunderground v.1.13,2013-02-12 19:29:00,
2013-02-12 13:32:00,31.4,22.7,29.82,SW,214,3.0,7.0,70,0.00,,,0.02,Wunderground v.1.13,2013-02-12 19:32:00,
2013-02-12 13:37:00,31.6,23.6,29.82,SSW,213,2.0,3.0,72,0.00,,,0.02,Wunderground v.1.13,2013-02-12 19:37:00,
2013-02-12 13:40:00,31.9,23.2,29.82,SSE,167,2.0,3.0,70,0.00,,,0.02,Wunderground v.1.13,2013-02-12 19:40:00,
2013-02-12 13:43:00,31.8,22.8,29.82,SE,137,2.0,5.0,69,0.00,,,0.02,Wunderground v.1.13,2013-02-12 19:43:00,
2013-02-12 13:45:00,31.6,22.6,29.82,West,260,3.0,3.0,69,0.00,,,0.02,Wunderground v.1.13,2013-02-12 19:45:00,
2013-02-12 13:47:00,31.6,22.6,29.82,SSW,212,3.0,4.0,69,0.00,,,0.02,Wunderground v.1.13,2013-02-12 19:47:00,
2013-02-12 13:51:00,31.4,22.4,29.81,SE,137,4.0,11.0,69,0.00,,,0.02,Wunderground v.1.13,2013-02-12 19:51:00,
2013-02-12 13:52:00,31.3,22.3,29.81,South,179,4.0,11.0,69,0.00,,,0.02,Wunderground v.1.13,2013-02-12 19:52:00,
2013-02-12 13:54:00,31.3,22.6,29.82,SW,236,4.0,11.0,70,0.00,,,0.02,Wunderground v.1.13,2013-02-12 19:54:00,
2013-02-12 13:58:00,31.2,22.5,29.82,WSW,248,4.0,6.0,70,0.00,,,0.03,Wunderground v.1.13,2013-02-12 19:58:00,
2013-02-12 13:59:00,31.2,22.5,29.82,WSW,244,4.0,6.0,70,0.00,,,0.03,Wunderground v.1.13,2013-02-12 19:59:00,
2013-02-12 14:04:00,31.5,23.2,29.82,SW,234,3.0,4.0,71,0.00,,,0.03,Wunderground v.1.13,2013-02-12 20:04:00,
2013-02-12 14:06:00,31.7,23.4,29.82,WSW,249,3.0,5.0,71,0.00,,,0.03,Wunderground v.1.13,2013-02-12 20:06:00,
2013-02-12 14:10:00,32.1,23.4,29.82,WSW,254,3.0,5.0,70,0.00,,,0.03,Wunderground v.1.13,2013-02-12 20:10:00,
2013-02-12 14:11:00,32.1,23.1,29.82,WSW,257,3.0,5.0,69,0.00,,,0.03,Wunderground v.1.13,2013-02-12 20:11:00,
2013-02-12 14:14:00,32.0,23.0,29.82,WSW,244,3.0,5.0,69,0.00,,,0.03,Wunderground v.1.13,2013-02-12 20:14:00,
2013-02-12 14:17:00,31.9,22.9,29.82,WSW,238,3.0,5.0,69,0.00,,,0.03,Wunderground v.1.13,2013-02-12 20:17:00,
2013-02-12 14:22:00,31.8,22.4,29.82,West,260,4.0,7.0,68,0.00,,,0.03,Wunderground v.1.13,2013-02-12 20:22:00,
2013-02-12 14:23:00,31.7,23.0,29.82,West,263,4.0,7.0,70,0.00,,,0.03,Wunderground v.1.13,2013-02-12 20:23:00,
2013-02-12 14:25:00,31.7,23.0,29.82,West,269,4.0,7.0,70,0.00,,,0.04,Wunderground v.1.13,2013-02-12 20:25:00,
2013-02-12 14:27:00,31.8,23.1,29.82,WSW,240,4.0,7.0,70,0.00,,,0.04,Wunderground v.1.13,2013-02-12 20:27:00,
2013-02-12 14:28:00,31.8,23.1,29.82,West,267,3.0,7.0,70,0.00,,,0.04,Wunderground v.1.13,2013-02-12 20:28:00,
2013-02-12 14:31:00,31.9,23.2,29.82,West,267,3.0,3.0,70,0.00,,,0.04,Wunderground v.1.13,2013-02-12 20:31:00,
2013-02-12 14:32:00,31.9,23.2,29.82,West,267,3.0,5.0,70,0.00,,,0.04,Wunderground v.1.13,2013-02-12 20:32:00,
2013-02-12 14:34:00,31.9,23.2,29.82,West,261,3.0,5.0,70,0.00,,,0.04,Wunderground v.1.13,2013-02-12 20:34:00,
2013-02-12 14:38:00,32.0,23.0,29.81,West,268,3.0,4.0,69,0.00,,,0.04,Wunderground v.1.13,2013-02-12 20:38:00,
2013-02-12 14:44:00,32.4,23.4,29.82,West,267,3.0,7.0,69,0.00,,,0.04,Wunderground v.1.13,2013-02-12 20:44:00,
2013-02-12 14:46:00,32.4,23.4,29.82,South,173,3.0,3.0,69,0.00,,,0.04,Wunderground v.1.13,2013-02-12 20:46:00,
2013-02-12 14:48:00,32.5,23.5,29.82,West,261,3.0,4.0,69,0.00,,,0.04,Wunderground v.1.13,2013-02-12 20:48:00,
2013-02-12 14:50:00,32.5,23.5,29.81,West,263,3.0,9.0,69,0.00,,,0.04,Wunderground v.1.13,2013-02-12 20:50:00,
2013-02-12 14:53:00,32.3,23.3,29.82,WSW,249,3.0,4.0,69,0.00,,,0.04,Wunderground v.1.13,2013-02-12 20:53:00,
2013-02-12 14:56:00,32.1,22.7,29.82,WNW,288,4.0,5.0,68,0.00,,,0.04,Wunderground v.1.13,2013-02-12 20:56:00,
2013-02-12 14:57:00,32.0,22.6,29.82,WSW,253,4.0,8.0,68,0.00,,,0.04,Wunderground v.1.13,2013-02-12 20:57:00,
2013-02-12 14:59:00,31.9,22.5,29.82,WSW,246,5.0,8.0,68,0.00,,,0.04,Wunderground v.1.13,2013-02-12 20:59:00,
2013-02-12 15:02:00,31.9,22.9,29.81,West,273,5.0,5.0,69,0.00,,,0.04,Wunderground v.1.13,2013-02-12 21:02:00,
2013-02-12 15:03:00,32.0,23.0,29.81,West,274,5.0,5.0,69,0.00,,,0.04,Wunderground v.1.13,2013-02-12 21:03:00,
2013-02-12 15:04:00,32.0,23.3,29.81,West,274,5.0,5.0,70,0.00,,,0.04,Wunderground v.1.13,2013-02-12 21:04:00,
2013-02-12 15:06:00,32.1,23.1,29.81,West,269,4.0,7.0,69,0.00,,,0.04,Wunderground v.1.13,2013-02-12 21:06:00,
2013-02-12 15:08:00,32.2,23.5,29.81,West,265,3.0,7.0,70,0.00,,,0.05,Wunderground v.1.13,2013-02-12 21:08:00,
2013-02-12 15:10:00,32.2,22.8,29.81,West,267,3.0,8.0,68,0.00,,,0.05,Wunderground v.1.13,2013-02-12 21:10:00,
2013-02-12 15:12:00,31.9,22.2,29.81,West,259,4.0,8.0,67,0.00,,,0.05,Wunderground v.1.13,2013-02-12 21:12:00,
2013-02-12 15:13:00,31.8,22.4,29.81,WSW,257,4.0,8.0,68,0.00,,,0.05,Wunderground v.1.13,2013-02-12 21:13:00,
2013-02-12 15:14:00,31.8,22.4,29.81,WSW,257,5.0,8.0,68,0.00,,,0.05,Wunderground v.1.13,2013-02-12 21:14:00,
2013-02-12 15:15:00,31.8,22.8,29.81,WSW,257,5.0,6.0,69,0.00,,,0.05,Wunderground v.1.13,2013-02-12 21:15:00,
2013-02-12 15:19:00,31.8,22.8,29.81,SSW,199,5.0,6.0,69,0.00,,,0.05,Wunderground v.1.13,2013-02-12 21:19:00,
2013-02-12 15:21:00,31.9,22.9,29.81,WSW,256,5.0,5.0,69,0.00,,,0.05,Wunderground v.1.13,2013-02-12 21:21:00,
2013-02-12 15:24:00,31.9,22.9,29.81,South,184,4.0,5.0,69,0.00,,,0.05,Wunderground v.1.13,2013-02-12 21:24:00,
2013-02-12 15:27:00,32.1,23.1,29.82,WSW,254,4.0,4.0,69,0.00,,,0.05,Wunderground v.1.13,2013-02-12 21:27:00,
2013-02-12 15:30:00,32.3,23.3,29.82,South,191,4.0,4.0,69,0.00,,,0.05,Wunderground v.1.13,2013-02-12 21:30:00,
2013-02-12 15:31:00,32.4,23.4,29.82,South,191,4.0,4.0,69,0.00,,,0.05,Wunderground v.1.13,2013-02-12 21:31:00,
2013-02-12 15:32:00,32.4,23.4,29.82,WSW,243,4.0,4.0,69,0.00,,,0.05,Wunderground v.1.13,2013-02-12 21:32:00,
2013-02-12 15:38:00,32.2,22.5,29.81,WSW,246,3.0,9.0,67,0.00,,,0.05,Wunderground v.1.13,2013-02-12 21:38:00,
2013-02-12 15:39:00,32.1,22.4,29.82,WSW,238,4.0,9.0,67,0.00,,,0.05,Wunderground v.1.13,2013-02-12 21:39:00,
2013-02-12 15:45:00,31.7,22.7,29.82,West,268,5.0,6.0,69,0.00,,,0.05,Wunderground v.1.13,2013-02-12 21:45:00,
2013-02-12 15:46:00,31.6,22.6,29.82,West,269,5.0,7.0,69,0.00,,,0.05,Wunderground v.1.13,2013-02-12 21:46:00,
2013-02-12 15:49:00,31.5,22.5,29.82,WSW,248,5.0,7.0,69,0.00,,,0.05,Wunderground v.1.13,2013-02-12 21:49:00,
2013-02-12 15:53:00,31.4,22.4,29.82,WSW,256,4.0,8.0,69,0.00,,,0.05,Wunderground v.1.13,2013-02-12 21:53:00,
2013-02-12 15:54:00,31.5,22.8,29.82,WSW,252,4.0,8.0,70,0.00,,,0.05,Wunderground v.1.13,2013-02-12 21:54:00,
2013-02-12 15:59:00,31.5,22.8,29.82,SSE,161,4.0,4.0,70,0.00,,,0.05,Wunderground v.1.13,2013-02-12 21:59:00,
2013-02-12 16:00:00,31.6,22.6,29.82,SW,232,4.0,4.0,69,0.00,,,0.05,Wunderground v.1.13,2013-02-12 22:00:00,
2013-02-12 16:01:00,31.6,22.6,29.82,WSW,240,3.0,5.0,69,0.00,,,0.05,Wunderground v.1.13,2013-02-12 22:01:00,
2013-02-12 16:07:00,31.7,23.0,29.81,WSW,256,4.0,5.0,70,0.00,,,0.05,Wunderground v.1.13,2013-02-12 22:07:00,
2013-02-12 16:09:00,31.7,23.0,29.81,West,259,4.0,6.0,70,0.00,,,0.05,Wunderground v.1.13,2013-02-12 22:09:00,
2013-02-12 16:12:00,31.7,22.7,29.81,WSW,247,4.0,5.0,69,0.00,,,0.05,Wunderground v.1.13,2013-02-12 22:12:00,
2013-02-12 16:14:00,31.8,22.8,29.81,WSW,246,3.0,5.0,69,0.00,,,0.05,Wunderground v.1.13,2013-02-12 22:14:00,
2013-02-12 16:15:00,31.8,23.1,29.81,WSW,245,3.0,3.0,70,0.00,,,0.05,Wunderground v.1.13,2013-02-12 22:15:00,
2013-02-12 16:21:00,31.8,23.1,29.81,WSW,254,3.0,3.0,70,0.00,,,0.05,Wunderground v.1.13,2013-02-12 22:21:00,
2013-02-12 16:22:00,31.8,23.1,29.81,WSW,254,2.0,3.0,70,0.00,,,0.05,Wunderground v.1.13,2013-02-12 22:22:00,
2013-02-12 16:23:00,31.8,23.1,29.81,WSW,255,2.0,5.0,70,0.00,,,0.05,Wunderground v.1.13,2013-02-12 22:23:00,
2013-02-12 16:29:00,31.6,22.6,29.81,WSW,257,3.0,6.0,69,0.00,,,0.05,Wunderground v.1.13,2013-02-12 22:29:00,
2013-02-12 16:30:00,31.6,22.6,29.81,WSW,254,3.0,3.0,69,0.00,,,0.05,Wunderground v.1.13,2013-02-12 22:30:00,
2013-02-12 16:31:00,31.5,22.5,29.81,WSW,254,3.0,3.0,69,0.00,,,0.05,Wunderground v.1.13,2013-02-12 22:31:00,
2013-02-12 16:32:00,31.5,22.5,29.81,WSW,254,3.0,3.0,69,0.00,,,0.05,Wunderground v.1.13,2013-02-12 22:32:00,
2013-02-12 16:36:00,31.2,22.5,29.81,West,263,3.0,3.0,70,0.00,,,0.05,Wunderground v.1.13,2013-02-12 22:36:00,
2013-02-12 16:37:00,31.1,22.5,29.81,West,259,3.0,4.0,70,0.00,,,0.05,Wunderground v.1.13,2013-02-12 22:37:00,
2013-02-12 16:41:00,31.0,22.4,29.81,West,259,3.0,3.0,70,0.00,,,0.05,Wunderground v.1.13,2013-02-12 22:41:00,
2013-02-12 16:42:00,31.0,22.4,29.81,West,259,3.0,3.0,70,0.00,,,0.05,Wunderground v.1.13,2013-02-12 22:42:00,
2013-02-12 16:45:00,30.8,22.2,29.81,WSW,248,3.0,3.0,70,0.00,,,0.05,Wunderground v.1.13,2013-02-12 22:45:00,
2013-02-12 16:50:00,30.6,22.3,29.81,SSW,213,2.0,2.0,71,0.00,,,0.05,Wunderground v.1.13,2013-02-12 22:50:00,
2013-02-12 16:51:00,30.6,22.3,29.81,SSW,192,2.0,2.0,71,0.00,,,0.05,Wunderground v.1.13,2013-02-12 22:51:00,
2013-02-12 16:55:00,30.4,22.1,29.81,SW,225,2.0,2.0,71,0.00,,,0.06,Wunderground v.1.13,2013-02-12 22:55:00,
2013-02-12 16:56:00,30.4,22.1,29.81,WSW,250,2.0,5.0,71,0.00,,,0.06,Wunderground v.1.13,2013-02-12 22:56:00,
2013-02-12 16:58:00,30.3,22.0,29.81,WSW,251,2.0,5.0,71,0.00,,,0.06,Wunderground v.1.13,2013-02-12 22:58:00,
2013-02-12 17:01:00,30.2,21.9,29.81,WSW,253,2.0,2.0,71,0.00,,,0.06,Wunderground v.1.13,2013-02-12 23:01:00,
2013-02-12 17:02:00,30.2,21.9,29.81,WSW,253,2.0,2.0,71,0.00,,,0.06,Wunderground v.1.13,2013-02-12 23:02:00,
2013-02-12 17:07:00,30.0,21.7,29.81,WSW,254,3.0,5.0,71,0.00,,,0.06,Wunderground v.1.13,2013-02-12 23:07:00,
2013-02-12 17:09:00,29.9,21.6,29.81,WSW,253,3.0,5.0,71,0.00,,,0.06,Wunderground v.1.13,2013-02-12 23:09:00,
2013-02-12 17:10:00,29.9,21.6,29.81,WSW,254,3.0,3.0,71,0.00,,,0.06,Wunderground v.1.13,2013-02-12 23:10:00,
2013-02-12 17:14:00,29.7,21.8,29.81,WSW,252,2.0,3.0,72,0.00,,,0.06,Wunderground v.1.13,2013-02-12 23:14:00,
2013-02-12 17:16:00,29.6,21.7,29.81,WSW,252,1.0,2.0,72,0.00,,,0.06,Wunderground v.1.13,2013-02-12 23:16:00,
2013-02-12 17:22:00,29.2,21.6,29.81,WSW,252,1.0,1.0,73,0.00,,,0.06,Wunderground v.1.13,2013-02-12 23:22:00,
2013-02-12 17:23:00,29.2,21.6,29.81,WSW,252,1.0,1.0,73,0.00,,,0.06,Wunderground v.1.13,2013-02-12 23:23:00,
2013-02-12 17:26:00,28.9,21.3,29.81,WSW,252,1.0,4.0,73,0.00,,,0.06,Wunderground v.1.13,2013-02-12 23:26:00,
2013-02-12 17:27:00,28.8,21.2,29.81,WSW,252,1.0,4.0,73,0.00,,,0.06,Wunderground v.1.13,2013-02-12 23:27:00,
2013-02-12 17:31:00,28.5,20.9,29.81,WSW,252,1.0,2.0,73,0.00,,,0.06,Wunderground v.1.13,2013-02-12 23:31:00,
2013-02-12 17:37:00,28.1,21.2,29.81,WSW,252,2.0,5.0,75,0.00,,,0.06,Wunderground v.1.13,2013-02-12 23:37:00,
2013-02-12 17:38:00,28.1,21.2,29.81,WSW,252,2.0,5.0,75,0.00,,,0.06,Wunderground v.1.13,2013-02-12 23:38:00,
2013-02-12 17:41:00,28.2,21.3,29.81,WSW,252,2.0,2.0,75,0.00,,,0.06,Wunderground v.1.13,2013-02-12 23:41:00,
2013-02-12 17:42:00,28.1,20.9,29.81,WSW,252,1.0,2.0,74,0.00,,,0.06,Wunderground v.1.13,2013-02-12 23:42:00,
2013-02-12 17:43:00,28.1,20.9,29.81,WSW,252,1.0,2.0,74,0.00,,,0.06,Wunderground v.1.13,2013-02-12 23:43:00,
2013-02-12 17:47:00,27.8,20.9,29.81,WSW,252,0.0,1.0,75,0.00,,,0.06,Wunderground v.1.13,2013-02-12 23:47:00,
2013-02-12 17:50:00,27.6,20.7,29.81,WSW,252,0.0,0.0,75,0.00,,,0.06,Wunderground v.1.13,2013-02-12 23:50:00,
2013-02-12 17:51:00,27.6,20.7,29.81,WSW,252,0.0,0.0,75,0.00,,,0.06,Wunderground v.1.13,2013-02-12 23:51:00,
2013-02-12 17:57:00,27.6,21.3,29.81,WSW,252,0.0,0.0,77,0.00,,,0.06,Wunderground v.1.13,2013-02-12 23:57:00,
2013-02-12 17:58:00,27.5,21.2,29.81,WSW,252,0.0,0.0,77,0.00,,,0.06,Wunderground v.1.13,2013-02-12 23:58:00,
2013-02-12 18:03:00,27.3,21.0,29.81,WSW,252,0.0,1.0,77,0.00,,,0.06,Wunderground v.1.13,2013-02-13 00:03:00,
2013-02-12 18:04:00,27.3,21.0,29.81,WSW,252,0.0,1.0,77,0.00,,,0.06,Wunderground v.1.13,2013-02-13 00:04:00,
2013-02-12 18:05:00,27.2,20.9,29.82,WSW,252,0.0,0.0,77,0.00,,,0.06,Wunderground v.1.13,2013-02-13 00:05:00,
2013-02-12 18:10:00,26.8,20.6,29.82,WSW,252,0.0,0.0,77,0.00,,,0.06,Wunderground v.1.13,2013-02-13 00:10:00,
2013-02-12 18:11:00,26.8,20.6,29.82,WSW,252,0.0,0.0,77,0.00,,,0.06,Wunderground v.1.13,2013-02-13 00:11:00,
2013-02-12 18:14:00,26.7,20.5,29.82,WSW,252,0.0,1.0,77,0.00,,,0.06,Wunderground v.1.13,2013-02-13 00:14:00,
2013-02-12 18:17:00,26.6,20.7,29.82,WSW,252,0.0,0.0,78,0.00,,,0.06,Wunderground v.1.13,2013-02-13 00:17:00,
2013-02-12 18:18:00,26.6,20.7,29.82,WSW,252,0.0,0.0,78,0.00,,,0.06,Wunderground v.1.13,2013-02-13 00:18:00,
2013-02-12 18:20:00,26.5,20.6,29.81,WSW,252,0.0,1.0,78,0.00,,,0.06,Wunderground v.1.13,2013-02-13 00:20:00,
2013-02-12 18:23:00,26.4,20.5,29.81,WSW,252,0.0,1.0,78,0.00,,,0.06,Wunderground v.1.13,2013-02-13 00:23:00,
2013-02-12 18:27:00,26.3,20.4,29.81,WSW,252,0.0,1.0,78,0.00,,,0.06,Wunderground v.1.13,2013-02-13 00:27:00,
2013-02-12 18:28:00,26.3,20.4,29.81,WSW,252,0.0,1.0,78,0.00,,,0.06,Wunderground v.1.13,2013-02-13 00:28:00,
2013-02-12 18:30:00,26.2,20.3,29.81,WSW,252,1.0,1.0,78,0.00,,,0.06,Wunderground v.1.13,2013-02-13 00:30:00,
2013-02-12 18:32:00,26.2,20.3,29.81,WSW,252,0.0,1.0,78,0.00,,,0.06,Wunderground v.1.13,2013-02-13 00:32:00,
2013-02-12 18:34:00,26.2,20.3,29.81,WSW,252,0.0,1.0,78,0.00,,,0.06,Wunderground v.1.13,2013-02-13 00:34:00,
2013-02-12 18:36:00,26.1,20.2,29.81,WSW,252,0.0,1.0,78,0.00,,,0.06,Wunderground v.1.13,2013-02-13 00:36:00,
2013-02-12 18:38:00,26.1,20.2,29.81,WSW,252,0.0,1.0,78,0.00,,,0.06,Wunderground v.1.13,2013-02-13 00:38:00,
2013-02-12 18:40:00,26.1,20.2,29.81,SW,225,1.0,4.0,78,0.00,,,0.06,Wunderground v.1.13,2013-02-13 00:40:00,
2013-02-12 18:43:00,26.1,20.2,29.81,South,169,1.0,4.0,78,0.00,,,0.06,Wunderground v.1.13,2013-02-13 00:43:00,
2013-02-12 18:45:00,26.2,20.3,29.81,South,174,2.0,2.0,78,0.00,,,0.06,Wunderground v.1.13,2013-02-13 00:45:00,
2013-02-12 18:48:00,26.2,20.3,29.81,South,190,1.0,2.0,78,0.00,,,0.06,Wunderground v.1.13,2013-02-13 00:48:00,
2013-02-12 18:49:00,26.1,20.2,29.81,South,190,1.0,2.0,78,0.00,,,0.06,Wunderground v.1.13,2013-02-13 00:49:00,
2013-02-12 18:50:00,26.1,20.2,29.81,SW,234,1.0,1.0,78,0.00,,,0.06,Wunderground v.1.13,2013-02-13 00:50:00,
2013-02-12 18:54:00,26.1,20.2,29.81,SW,234,1.0,2.0,78,0.00,,,0.06,Wunderground v.1.13,2013-02-13 00:54:00,
2013-02-12 18:56:00,26.1,20.5,29.81,SW,223,1.0,4.0,79,0.00,,,0.06,Wunderground v.1.13,2013-02-13 00:56:00,
2013-02-12 18:57:00,26.1,20.5,29.81,SW,223,1.0,4.0,79,0.00,,,0.06,Wunderground v.1.13,2013-02-13 00:57:00,
2013-02-12 19:00:00,26.2,20.6,29.81,SW,222,1.0,1.0,79,0.00,,,0.06,Wunderground v.1.13,2013-02-13 01:00:00,
2013-02-12 19:02:00,26.1,20.5,29.81,SW,222,1.0,1.0,79,0.00,,,0.06,Wunderground v.1.13,2013-02-13 01:02:00,
2013-02-12 19:03:00,26.1,20.5,29.81,SW,222,1.0,1.0,79,0.00,,,0.06,Wunderground v.1.13,2013-02-13 01:03:00,
2013-02-12 19:04:00,26.1,20.5,29.81,SW,222,1.0,1.0,79,0.00,,,0.06,Wunderground v.1.13,2013-02-13 01:04:00,
2013-02-12 19:05:00,26.1,20.5,29.80,SW,222,1.0,1.0,79,0.00,,,0.06,Wunderground v.1.13,2013-02-13 01:05:00,
2013-02-12 19:07:00,26.0,20.4,29.80,SW,222,1.0,1.0,79,0.00,,,0.06,Wunderground v.1.13,2013-02-13 01:07:00,
2013-02-12 19:09:00,26.0,20.4,29.80,SW,222,1.0,1.0,79,0.00,,,0.06,Wunderground v.1.13,2013-02-13 01:09:00,
2013-02-12 19:11:00,25.9,20.3,29.80,SW,222,0.0,1.0,79,0.00,,,0.06,Wunderground v.1.13,2013-02-13 01:11:00,
2013-02-12 19:12:00,25.9,20.3,29.80,SW,222,0.0,1.0,79,0.00,,,0.06,Wunderground v.1.13,2013-02-13 01:12:00,
2013-02-12 19:14:00,25.7,20.1,29.80,SW,222,0.0,1.0,79,0.00,,,0.06,Wunderground v.1.13,2013-02-13 01:14:00,
2013-02-12 19:18:00,25.5,19.9,29.81,SW,222,0.0,1.0,79,0.00,,,0.06,Wunderground v.1.13,2013-02-13 01:18:00,
2013-02-12 19:19:00,25.4,19.8,29.81,SW,222,0.0,2.0,79,0.00,,,0.06,Wunderground v.1.13,2013-02-13 01:19:00,
2013-02-12 19:20:00,25.3,19.7,29.81,SW,222,0.0,0.0,79,0.00,,,0.06,Wunderground v.1.13,2013-02-13 01:20:00,
2013-02-12 19:25:00,25.1,19.8,29.81,SW,222,1.0,1.0,80,0.00,,,0.06,Wunderground v.1.13,2013-02-13 01:25:00,
2013-02-12 19:26:00,25.0,19.7,29.81,SW,222,1.0,1.0,80,0.00,,,0.06,Wunderground v.1.13,2013-02-13 01:26:00,
2013-02-12 19:27:00,25.1,19.8,29.81,SW,222,1.0,1.0,80,0.00,,,0.06,Wunderground v.1.13,2013-02-13 01:27:00,
2013-02-12 19:30:00,25.1,20.1,29.81,WSW,244,1.0,1.0,81,0.00,,,0.06,Wunderground v.1.13,2013-02-13 01:30:00,
2013-02-12 19:31:00,25.1,20.1,29.81,WSW,244,1.0,1.0,81,0.00,,,0.06,Wunderground v.1.13,2013-02-13 01:31:00,
2013-02-12 19:37:00,25.2,20.2,29.81,WSW,248,2.0,2.0,81,0.00,,,0.06,Wunderground v.1.13,2013-02-13 01:37:00,
2013-02-12 19:38:00,25.2,20.2,29.81,WSW,249,2.0,3.0,81,0.00,,,0.06,Wunderground v.1.13,2013-02-13 01:38:00,
2013-02-12 19:40:00,25.1,19.8,29.82,WSW,249,1.0,2.0,80,0.00,,,0.06,Wunderground v.1.13,2013-02-13 01:40:00,
2013-02-12 19:43:00,24.8,19.5,29.82,WSW,250,2.0,4.0,80,0.00,,,0.06,Wunderground v.1.13,2013-02-13 01:43:00,
2013-02-12 19:45:00,24.6,19.3,29.82,WSW,250,2.0,2.0,80,0.00,,,0.06,Wunderground v.1.13,2013-02-13 01:45:00,
2013-02-12 19:46:00,24.6,19.3,29.82,WSW,249,2.0,2.0,80,0.00,,,0.06,Wunderground v.1.13,2013-02-13 01:46:00,
2013-02-12 19:49:00,24.3,19.3,29.82,WSW,249,2.0,2.0,81,0.00,,,0.06,Wunderground v.1.13,2013-02-13 01:49:00,
2013-02-12 19:51:00,24.2,19.2,29.81,WSW,250,2.0,5.0,81,0.00,,,0.06,Wunderground v.1.13,2013-02-13 01:51:00,
2013-02-12 19:53:00,24.1,19.1,29.81,WSW,250,2.0,5.0,81,0.00,,,0.06,Wunderground v.1.13,2013-02-13 01:53:00,
2013-02-12 19:57:00,23.8,18.8,29.81,WSW,250,3.0,4.0,81,0.00,,,0.06,Wunderground v.1.13,2013-02-13 01:57:00,
2013-02-12 19:58:00,23.7,18.7,29.81,WSW,250,3.0,4.0,81,0.00,,,0.06,Wunderground v.1.13,2013-02-13 01:58:00,
2013-02-12 20:00:00,23.7,18.7,29.81,WSW,250,3.0,4.0,81,0.00,,,0.06,Wunderground v.1.13,2013-02-13 02:00:00,
2013-02-12 20:05:00,23.5,18.8,29.81,WSW,252,2.0,2.0,82,0.00,,,0.06,Wunderground v.1.13,2013-02-13 02:05:00,
2013-02-12 20:06:00,23.5,18.8,29.80,WSW,252,3.0,5.0,82,0.00,,,0.06,Wunderground v.1.13,2013-02-13 02:06:00,
2013-02-12 20:08:00,23.5,18.8,29.80,WSW,252,3.0,5.0,82,0.00,,,0.06,Wunderground v.1.13,2013-02-13 02:08:00,
2013-02-12 20:11:00,23.5,18.8,29.80,West,263,3.0,6.0,82,0.00,,,0.06,Wunderground v.1.13,2013-02-13 02:11:00,
2013-02-12 20:16:00,23.5,18.8,29.80,WSW,246,4.0,7.0,82,0.00,,,0.06,Wunderground v.1.13,2013-02-13 02:16:00,
2013-02-12 20:17:00,23.5,18.8,29.80,WSW,245,4.0,7.0,82,0.00,,,0.06,Wunderground v.1.13,2013-02-13 02:17:00,
2013-02-12 20:18:00,23.6,18.9,29.80,WSW,245,4.0,7.0,82,0.00,,,0.06,Wunderground v.1.13,2013-02-13 02:18:00,
2013-02-12 20:22:00,23.6,18.9,29.80,WSW,255,4.0,5.0,82,0.00,,,0.06,Wunderground v.1.13,2013-02-13 02:22:00,
2013-02-12 20:24:00,23.6,18.9,29.80,WSW,256,4.0,5.0,82,0.00,,,0.06,Wunderground v.1.13,2013-02-13 02:24:00,
2013-02-12 20:27:00,23.6,18.9,29.80,WSW,254,3.0,4.0,82,0.00,,,0.06,Wunderground v.1.13,2013-02-13 02:27:00,
2013-02-12 20:29:00,23.5,18.8,29.80,WSW,255,3.0,4.0,82,0.00,,,0.06,Wunderground v.1.13,2013-02-13 02:29:00,
2013-02-12 20:30:00,23.5,18.8,29.80,WSW,256,3.0,4.0,82,0.00,,,0.06,Wunderground v.1.13,2013-02-13 02:30:00,
2013-02-12 20:34:00,23.4,18.7,29.80,West,264,3.0,5.0,82,0.00,,,0.06,Wunderground v.1.13,2013-02-13 02:34:00,
2013-02-12 20:36:00,23.4,18.7,29.80,West,264,3.0,3.0,82,0.00,,,0.06,Wunderground v.1.13,2013-02-13 02:36:00,
2013-02-12 20:37:00,23.4,20.6,29.81,West,264,3.0,4.0,89,0.00,,,0.06,Wunderground v.1.13,2013-02-13 02:37:00,
2013-02-12 20:42:00,23.3,18.6,29.80,West,264,3.0,3.0,82,0.00,,,0.06,Wunderground v.1.13,2013-02-13 02:42:00,
2013-02-12 20:44:00,23.3,18.6,29.80,West,264,2.0,4.0,82,0.00,,,0.06,Wunderground v.1.13,2013-02-13 02:44:00,
2013-02-12 20:45:00,23.3,18.6,29.81,West,264,3.0,3.0,82,0.00,,,0.06,Wunderground v.1.13,2013-02-13 02:45:00,
2013-02-12 20:46:00,23.3,18.6,29.80,West,264,3.0,3.0,82,0.00,,,0.06,Wunderground v.1.13,2013-02-13 02:46:00,
2013-02-12 20:51:00,23.3,18.6,29.80,West,264,3.0,4.0,82,0.00,,,0.06,Wunderground v.1.13,2013-02-13 02:51:00,
2013-02-12 20:54:00,23.2,18.5,29.80,West,267,3.0,4.0,82,0.00,,,0.06,Wunderground v.1.13,2013-02-13 02:54:00,
2013-02-12 20:55:00,23.2,18.5,29.80,West,267,3.0,3.0,82,0.00,,,0.06,Wunderground v.1.13,2013-02-13 02:55:00,
2013-02-12 21:00:00,23.2,18.5,29.80,West,267,3.0,3.0,82,0.00,,,0.06,Wunderground v.1.13,2013-02-13 03:00:00,
2013-02-12 21:01:00,23.2,18.5,29.80,West,265,3.0,4.0,82,0.00,,,0.06,Wunderground v.1.13,2013-02-13 03:01:00,
2013-02-12 21:05:00,23.1,18.4,29.80,West,265,4.0,4.0,82,0.00,,,0.06,Wunderground v.1.13,2013-02-13 03:05:00,
2013-02-12 21:09:00,23.0,18.3,29.80,West,259,3.0,4.0,82,0.00,,,0.06,Wunderground v.1.13,2013-02-13 03:09:00,
2013-02-12 21:12:00,22.9,18.2,29.80,West,261,3.0,5.0,82,0.00,,,0.06,Wunderground v.1.13,2013-02-13 03:12:00,
2013-02-12 21:15:00,22.9,18.2,29.80,West,260,3.0,3.0,82,0.00,,,0.06,Wunderground v.1.13,2013-02-13 03:15:00,
2013-02-12 21:16:00,22.9,18.2,29.80,WSW,248,3.0,6.0,82,0.00,,,0.06,Wunderground v.1.13,2013-02-13 03:16:00,
2013-02-12 21:19:00,23.0,18.6,29.80,WSW,256,4.0,7.0,83,0.00,,,0.06,Wunderground v.1.13,2013-02-13 03:19:00,
2013-02-12 21:21:00,23.0,18.3,29.79,WSW,252,5.0,7.0,82,0.00,,,0.06,Wunderground v.1.13,2013-02-13 03:21:00,
2013-02-12 21:22:00,23.0,18.3,29.79,WSW,250,5.0,7.0,82,0.00,,,0.06,Wunderground v.1.13,2013-02-13 03:22:00,
2013-02-12 21:26:00,23.0,18.3,29.79,WSW,254,5.0,6.0,82,0.00,,,0.06,Wunderground v.1.13,2013-02-13 03:26:00,
2013-02-12 21:27:00,23.0,18.3,29.79,WSW,256,5.0,6.0,82,0.00,,,0.06,Wunderground v.1.13,2013-02-13 03:27:00,
2013-02-12 21:32:00,23.0,18.6,29.79,WSW,254,4.0,4.0,83,0.00,,,0.06,Wunderground v.1.13,2013-02-13 03:32:00,
2013-02-12 21:36:00,23.1,18.7,29.79,WSW,248,3.0,3.0,83,0.00,,,0.06,Wunderground v.1.13,2013-02-13 03:36:00,
2013-02-12 21:37:00,23.1,18.4,29.79,WSW,248,3.0,3.0,82,0.00,,,0.06,Wunderground v.1.13,2013-02-13 03:37:00,
2013-02-12 21:40:00,23.3,18.9,29.78,WSW,246,3.0,3.0,83,0.00,,,0.06,Wunderground v.1.13,2013-02-13 03:40:00,
2013-02-12 21:41:00,23.3,18.9,29.78,SW,227,2.0,2.0,83,0.00,,,0.06,Wunderground v.1.13,2013-02-13 03:41:00,
2013-02-12 21:44:00,23.4,19.0,29.78,SW,227,2.0,4.0,83,0.00,,,0.06,Wunderground v.1.13,2013-02-13 03:44:00,
2013-02-12 21:46:00,23.4,19.0,29.79,SW,222,2.0,2.0,83,0.00,,,0.06,Wunderground v.1.13,2013-02-13 03:46:00,
2013-02-12 21:48:00,23.4,19.0,29.79,WSW,240,2.0,4.0,83,0.00,,,0.06,Wunderground v.1.13,2013-02-13 03:48:00,
2013-02-12 21:51:00,23.5,19.1,29.79,WSW,248,2.0,4.0,83,0.00,,,0.06,Wunderground v.1.13,2013-02-13 03:51:00,
2013-02-12 21:54:00,23.4,18.7,29.79,WSW,253,3.0,4.0,82,0.00,,,0.06,Wunderground v.1.13,2013-02-13 03:54:00,
2013-02-12 21:59:00,23.3,18.6,29.79,WSW,252,2.0,4.0,82,0.00,,,0.06,Wunderground v.1.13,2013-02-13 03:59:00,
2013-02-12 22:00:00,23.3,18.9,29.79,WSW,252,3.0,3.0,83,0.00,,,0.06,Wunderground v.1.13,2013-02-13 04:00:00,
2013-02-12 22:01:00,23.3,18.9,29.79,WSW,252,3.0,3.0,83,0.00,,,0.06,Wunderground v.1.13,2013-02-13 04:01:00,
2013-02-12 22:07:00,23.2,18.8,29.79,WSW,252,3.0,5.0,83,0.00,,,0.06,Wunderground v.1.13,2013-02-13 04:07:00,
2013-02-12 22:08:00,23.2,18.8,29.78,WSW,252,3.0,5.0,83,0.00,,,0.06,Wunderground v.1.13,2013-02-13 04:08:00,
2013-02-12 22:10:00,23.2,18.8,29.79,WSW,252,3.0,6.0,83,0.00,,,0.06,Wunderground v.1.13,2013-02-13 04:10:00,
2013-02-12 22:16:00,23.1,18.7,29.79,West,266,3.0,4.0,83,0.00,,,0.06,Wunderground v.1.13,2013-02-13 04:16:00,
2013-02-12 22:17:00,23.1,18.7,29.79,WSW,240,3.0,7.0,83,0.00,,,0.06,Wunderground v.1.13,2013-02-13 04:17:00,
2013-02-12 22:18:00,23.1,18.7,29.79,WSW,253,4.0,7.0,83,0.00,,,0.06,Wunderground v.1.13,2013-02-13 04:18:00,
2013-02-12 22:19:00,23.1,18.7,29.79,WSW,253,4.0,7.0,83,0.00,,,0.06,Wunderground v.1.13,2013-02-13 04:19:00,
2013-02-12 22:25:00,23.1,18.7,29.78,WSW,254,5.0,7.0,83,0.00,,,0.06,Wunderground v.1.13,2013-02-13 04:25:00,
2013-02-12 22:26:00,23.0,18.6,29.78,WSW,249,6.0,7.0,83,0.00,,,0.06,Wunderground v.1.13,2013-02-13 04:26:00,
2013-02-12 22:27:00,23.1,18.7,29.78,WSW,246,6.0,7.0,83,0.00,,,0.06,Wunderground v.1.13,2013-02-13 04:27:00,
2013-02-12 22:28:00,23.0,18.6,29.78,West,259,6.0,7.0,83,0.00,,,0.06,Wunderground v.1.13,2013-02-13 04:28:00,
2013-02-12 22:31:00,23.0,18.6,29.78,WSW,253,7.0,7.0,83,0.00,,,0.06,Wunderground v.1.13,2013-02-13 04:31:00,
2013-02-12 22:32:00,23.0,18.6,29.78,West,268,7.0,10.0,83,0.00,,,0.06,Wunderground v.1.13,2013-02-13 04:32:00,
2013-02-12 22:33:00,23.0,18.6,29.78,WSW,246,7.0,10.0,83,0.00,,,0.06,Wunderground v.1.13,2013-02-13 04:33:00,
2013-02-12 22:36:00,23.0,18.6,29.78,WSW,254,6.0,6.0,83,0.00,,,0.06,Wunderground v.1.13,2013-02-13 04:36:00,
2013-02-12 22:41:00,23.0,18.6,29.78,West,264,6.0,6.0,83,0.00,,,0.06,Wunderground v.1.13,2013-02-13 04:41:00,
2013-02-12 22:42:00,23.0,18.6,29.78,West,259,6.0,6.0,83,0.00,,,0.06,Wunderground v.1.13,2013-02-13 04:42:00,
2013-02-12 22:45:00,22.9,18.5,29.78,West,267,5.0,6.0,83,0.00,,,0.06,Wunderground v.1.13,2013-02-13 04:45:00,
2013-02-12 22:47:00,22.9,18.5,29.78,WSW,252,5.0,5.0,83,0.00,,,0.06,Wunderground v.1.13,2013-02-13 04:47:00,
2013-02-12 22:50:00,22.9,18.5,29.78,West,260,5.0,7.0,83,0.00,,,0.06,Wunderground v.1.13,2013-02-13 04:50:00,
2013-02-12 22:52:00,22.9,18.5,29.78,WSW,253,5.0,9.0,83,0.00,,,0.06,Wunderground v.1.13,2013-02-13 04:52:00,
2013-02-12 22:55:00,22.9,18.5,29.78,WSW,252,6.0,9.0,83,0.00,,,0.06,Wunderground v.1.13,2013-02-13 04:55:00,
2013-02-12 22:56:00,22.9,18.5,29.78,WSW,252,6.0,6.0,83,0.00,,,0.06,Wunderground v.1.13,2013-02-13 04:56:00,
2013-02-12 22:58:00,22.9,18.5,29.77,West,263,5.0,6.0,83,0.00,,,0.06,Wunderground v.1.13,2013-02-13 04:58:00,
2013-02-12 23:00:00,22.9,18.5,29.77,West,260,5.0,5.0,83,0.00,,,0.06,Wunderground v.1.13,2013-02-13 05:00:00,
2013-02-12 23:02:00,22.9,18.5,29.77,West,265,5.0,5.0,83,0.00,,,0.06,Wunderground v.1.13,2013-02-13 05:02:00,
2013-02-12 23:04:00,22.9,18.5,29.77,West,265,4.0,5.0,83,0.00,,,0.06,Wunderground v.1.13,2013-02-13 05:04:00,
2013-02-12 23:06:00,22.8,18.4,29.77,West,263,4.0,5.0,83,0.00,,,0.06,Wunderground v.1.13,2013-02-13 05:06:00,
2013-02-12 23:10:00,22.9,18.5,29.77,West,261,5.0,5.0,83,0.00,,,0.06,Wunderground v.1.13,2013-02-13 05:10:00,
2013-02-12 23:12:00,22.9,18.5,29.77,WSW,254,5.0,5.0,83,0.00,,,0.06,Wunderground v.1.13,2013-02-13 05:12:00,
2013-02-12 23:16:00,22.9,18.5,29.77,WSW,258,6.0,6.0,83,0.00,,,0.06,Wunderground v.1.13,2013-02-13 05:16:00,
2013-02-12 23:17:00,22.9,18.5,29.77,West,259,6.0,6.0,83,0.00,,,0.06,Wunderground v.1.13,2013-02-13 05:17:00,
2013-02-12 23:21:00,22.9,18.5,29.76,West,261,5.0,6.0,83,0.00,,,0.06,Wunderground v.1.13,2013-02-13 05:21:00,
2013-02-12 23:22:00,22.9,18.5,29.77,WSW,255,5.0,6.0,83,0.00,,,0.06,Wunderground v.1.13,2013-02-13 05:22:00,
2013-02-12 23:25:00,22.9,18.5,29.76,West,264,5.0,5.0,83,0.00,,,0.06,Wunderground v.1.13,2013-02-13 05:25:00,
2013-02-12 23:27:00,22.9,18.5,29.76,West,259,5.0,5.0,83,0.00,,,0.06,Wunderground v.1.13,2013-02-13 05:27:00,
2013-02-12 23:28:00,22.9,18.5,29.76,WSW,253,5.0,6.0,83,0.00,,,0.06,Wunderground v.1.13,2013-02-13 05:28:00,
2013-02-12 23:31:00,22.9,18.5,29.76,WSW,254,5.0,7.0,83,0.00,,,0.06,Wunderground v.1.13,2013-02-13 05:31:00,
2013-02-12 23:35:00,22.9,18.5,29.76,West,261,6.0,7.0,83,0.00,,,0.06,Wunderground v.1.13,2013-02-13 05:35:00,
2013-02-12 23:36:00,22.9,18.5,29.76,WSW,254,6.0,7.0,83,0.00,,,0.06,Wunderground v.1.13,2013-02-13 05:36:00,
2013-02-12 23:38:00,22.9,18.5,29.76,West,266,6.0,7.0,83,0.00,,,0.06,Wunderground v.1.13,2013-02-13 05:38:00,
2013-02-12 23:42:00,22.9,18.5,29.76,WSW,241,6.0,7.0,83,0.00,,,0.06,Wunderground v.1.13,2013-02-13 05:42:00,
2013-02-12 23:45:00,22.9,18.5,29.76,WSW,257,5.0,5.0,83,0.00,,,0.06,Wunderground v.1.13,2013-02-13 05:45:00,
2013-02-12 23:48:00,22.8,18.4,29.77,WSW,254,5.0,8.0,83,0.00,,,0.06,Wunderground v.1.13,2013-02-13 05:48:00,
2013-02-12 23:50:00,22.8,18.4,29.76,WSW,251,6.0,6.0,83,0.00,,,0.06,Wunderground v.1.13,2013-02-13 05:50:00,
2013-02-12 23:54:00,22.8,18.4,29.76,West,262,6.0,6.0,83,0.00,,,0.06,Wunderground v.1.13,2013-02-13 05:54:00,
2013-02-12 23:56:00,22.8,18.4,29.77,West,262,5.0,5.0,83,0.00,,,0.06,Wunderground v.1.13,2013-02-13 05:56:00,
2013-02-12 23:57:00,22.8,18.4,29.76,West,260,5.0,5.0,83,0.00,,,0.06,Wunderground v.1.13,2013-02-13 05:57:00,